<?xml version="1.0" encoding="UTF-8" standalone="no" ?>
<gpx xmlns="http://www.topografix.com/GPX/1/1" xmlns:xsi="http://www.w3.org/2001/XMLSchema-instance" xsi:schemaLocation="http://www.topografix.com/GPX/1/1 http://www.topografix.com/GPX/1/1/gpx.xsd" version="1.1" creator="VisuGPX - https://www.visugpx.com">
  <metadata>
    <name>ST GAUZENS</name>
    <desc><![CDATA[Se garer parking Mairie   suivre balisage jaune vers salle des fête. beaux paysages, 
tables pique nique vers point 262 et autre après Le Prone. ce circuit peut être rallongé avec le circuit des Crêtes de Briatexte ]]></desc>
  </metadata>
  <trk>
    <name><![CDATA[ST GAUZENS 9,4KM]]></name>
    <trkseg>
      <trkpt lat="43.74768" lon="1.89977">
        <ele>173.66</ele>
        <time>2018-12-27T13:08:18Z</time>
      </trkpt>
      <trkpt lat="43.74768" lon="1.89977">
        <ele>173.66</ele>
        <time>2018-12-27T13:08:19Z</time>
      </trkpt>
      <trkpt lat="43.74768" lon="1.8998">
        <ele>171.73</ele>
        <time>2018-12-27T13:08:39Z</time>
      </trkpt>
      <trkpt lat="43.74769" lon="1.89981">
        <ele>171.73</ele>
        <time>2018-12-27T13:08:40Z</time>
      </trkpt>
      <trkpt lat="43.74769" lon="1.89982">
        <ele>173.17</ele>
        <time>2018-12-27T13:08:42Z</time>
      </trkpt>
      <trkpt lat="43.74769" lon="1.89983">
        <ele>172.69</ele>
        <time>2018-12-27T13:08:59Z</time>
      </trkpt>
      <trkpt lat="43.74769" lon="1.89984">
        <ele>173.66</ele>
        <time>2018-12-27T13:09:03Z</time>
      </trkpt>
      <trkpt lat="43.74763" lon="1.8998">
        <ele>173.66</ele>
        <time>2018-12-27T13:09:11Z</time>
      </trkpt>
      <trkpt lat="43.74753" lon="1.89971">
        <ele>173.66</ele>
        <time>2018-12-27T13:09:28Z</time>
      </trkpt>
      <trkpt lat="43.74754" lon="1.89971">
        <ele>173.17</ele>
        <time>2018-12-27T13:09:42Z</time>
      </trkpt>
      <trkpt lat="43.74753" lon="1.89975">
        <ele>172.69</ele>
        <time>2018-12-27T13:10:10Z</time>
      </trkpt>
      <trkpt lat="43.74757" lon="1.89974">
        <ele>172.69</ele>
        <time>2018-12-27T13:10:28Z</time>
      </trkpt>
      <trkpt lat="43.7476" lon="1.89977">
        <ele>172.69</ele>
        <time>2018-12-27T13:10:34Z</time>
      </trkpt>
      <trkpt lat="43.74773" lon="1.89984">
        <ele>172.21</ele>
        <time>2018-12-27T13:10:50Z</time>
      </trkpt>
      <trkpt lat="43.7478" lon="1.89978">
        <ele>172.21</ele>
        <time>2018-12-27T13:10:58Z</time>
      </trkpt>
      <trkpt lat="43.74787" lon="1.89963">
        <ele>172.21</ele>
        <time>2018-12-27T13:11:10Z</time>
      </trkpt>
      <trkpt lat="43.74793" lon="1.8995">
        <ele>171.73</ele>
        <time>2018-12-27T13:11:21Z</time>
      </trkpt>
      <trkpt lat="43.74797" lon="1.89941">
        <ele>170.29</ele>
        <time>2018-12-27T13:11:27Z</time>
      </trkpt>
      <trkpt lat="43.74809" lon="1.89919">
        <ele>170.29</ele>
        <time>2018-12-27T13:11:44Z</time>
      </trkpt>
      <trkpt lat="43.7481" lon="1.89911">
        <ele>170.29</ele>
        <time>2018-12-27T13:11:49Z</time>
      </trkpt>
      <trkpt lat="43.74813" lon="1.89883">
        <ele>169.33</ele>
        <time>2018-12-27T13:12:08Z</time>
      </trkpt>
      <trkpt lat="43.74813" lon="1.8988">
        <ele>169.33</ele>
        <time>2018-12-27T13:12:10Z</time>
      </trkpt>
      <trkpt lat="43.74812" lon="1.89876">
        <ele>169.33</ele>
        <time>2018-12-27T13:12:13Z</time>
      </trkpt>
      <trkpt lat="43.74806" lon="1.89857">
        <ele>169.33</ele>
        <time>2018-12-27T13:12:29Z</time>
      </trkpt>
      <trkpt lat="43.74805" lon="1.89853">
        <ele>169.33</ele>
        <time>2018-12-27T13:12:31Z</time>
      </trkpt>
      <trkpt lat="43.74805" lon="1.89847">
        <ele>168.85</ele>
        <time>2018-12-27T13:12:35Z</time>
      </trkpt>
      <trkpt lat="43.74804" lon="1.89834">
        <ele>168.37</ele>
        <time>2018-12-27T13:12:43Z</time>
      </trkpt>
      <trkpt lat="43.74801" lon="1.89804">
        <ele>168.37</ele>
        <time>2018-12-27T13:13:00Z</time>
      </trkpt>
      <trkpt lat="43.748" lon="1.89781">
        <ele>167.41</ele>
        <time>2018-12-27T13:13:15Z</time>
      </trkpt>
      <trkpt lat="43.748" lon="1.89751">
        <ele>167.41</ele>
        <time>2018-12-27T13:13:31Z</time>
      </trkpt>
      <trkpt lat="43.74802" lon="1.89722">
        <ele>166.93</ele>
        <time>2018-12-27T13:13:50Z</time>
      </trkpt>
      <trkpt lat="43.74799" lon="1.89721">
        <ele>166.93</ele>
        <time>2018-12-27T13:13:55Z</time>
      </trkpt>
      <trkpt lat="43.74779" lon="1.89717">
        <ele>166.93</ele>
        <time>2018-12-27T13:14:13Z</time>
      </trkpt>
      <trkpt lat="43.74762" lon="1.89712">
        <ele>167.89</ele>
        <time>2018-12-27T13:14:30Z</time>
      </trkpt>
      <trkpt lat="43.74757" lon="1.8971">
        <ele>167.89</ele>
        <time>2018-12-27T13:14:44Z</time>
      </trkpt>
      <trkpt lat="43.74746" lon="1.89703">
        <ele>169.33</ele>
        <time>2018-12-27T13:15:00Z</time>
      </trkpt>
      <trkpt lat="43.74739" lon="1.89698">
        <ele>169.81</ele>
        <time>2018-12-27T13:15:17Z</time>
      </trkpt>
      <trkpt lat="43.74738" lon="1.89696">
        <ele>169.81</ele>
        <time>2018-12-27T13:15:34Z</time>
      </trkpt>
      <trkpt lat="43.74729" lon="1.89693">
        <ele>170.29</ele>
        <time>2018-12-27T13:15:49Z</time>
      </trkpt>
      <trkpt lat="43.74715" lon="1.89686">
        <ele>171.25</ele>
        <time>2018-12-27T13:16:06Z</time>
      </trkpt>
      <trkpt lat="43.74711" lon="1.89684">
        <ele>171.25</ele>
        <time>2018-12-27T13:16:25Z</time>
      </trkpt>
      <trkpt lat="43.74703" lon="1.89682">
        <ele>172.21</ele>
        <time>2018-12-27T13:16:40Z</time>
      </trkpt>
      <trkpt lat="43.74691" lon="1.89683">
        <ele>172.69</ele>
        <time>2018-12-27T13:16:55Z</time>
      </trkpt>
      <trkpt lat="43.74676" lon="1.89679">
        <ele>175.58</ele>
        <time>2018-12-27T13:17:12Z</time>
      </trkpt>
      <trkpt lat="43.74662" lon="1.89674">
        <ele>177.02</ele>
        <time>2018-12-27T13:17:30Z</time>
      </trkpt>
      <trkpt lat="43.74647" lon="1.89667">
        <ele>178.46</ele>
        <time>2018-12-27T13:17:46Z</time>
      </trkpt>
      <trkpt lat="43.74635" lon="1.89662">
        <ele>180.38</ele>
        <time>2018-12-27T13:17:59Z</time>
      </trkpt>
      <trkpt lat="43.74621" lon="1.89655">
        <ele>183.75</ele>
        <time>2018-12-27T13:18:16Z</time>
      </trkpt>
      <trkpt lat="43.7461" lon="1.89648">
        <ele>186.63</ele>
        <time>2018-12-27T13:18:34Z</time>
      </trkpt>
      <trkpt lat="43.74598" lon="1.89646">
        <ele>189.04</ele>
        <time>2018-12-27T13:18:51Z</time>
      </trkpt>
      <trkpt lat="43.74585" lon="1.89644">
        <ele>192.4</ele>
        <time>2018-12-27T13:19:06Z</time>
      </trkpt>
      <trkpt lat="43.74574" lon="1.89642">
        <ele>194.8</ele>
        <time>2018-12-27T13:19:23Z</time>
      </trkpt>
      <trkpt lat="43.7456" lon="1.8964">
        <ele>198.17</ele>
        <time>2018-12-27T13:19:40Z</time>
      </trkpt>
      <trkpt lat="43.74545" lon="1.89639">
        <ele>201.05</ele>
        <time>2018-12-27T13:19:56Z</time>
      </trkpt>
      <trkpt lat="43.74535" lon="1.8964">
        <ele>203.46</ele>
        <time>2018-12-27T13:20:15Z</time>
      </trkpt>
      <trkpt lat="43.7452" lon="1.89638">
        <ele>206.34</ele>
        <time>2018-12-27T13:20:34Z</time>
      </trkpt>
      <trkpt lat="43.74506" lon="1.8964">
        <ele>208.74</ele>
        <time>2018-12-27T13:20:55Z</time>
      </trkpt>
      <trkpt lat="43.74492" lon="1.89639">
        <ele>212.11</ele>
        <time>2018-12-27T13:21:13Z</time>
      </trkpt>
      <trkpt lat="43.74481" lon="1.89638">
        <ele>213.55</ele>
        <time>2018-12-27T13:21:26Z</time>
      </trkpt>
      <trkpt lat="43.74469" lon="1.89635">
        <ele>214.99</ele>
        <time>2018-12-27T13:21:40Z</time>
      </trkpt>
      <trkpt lat="43.74457" lon="1.8963">
        <ele>215.95</ele>
        <time>2018-12-27T13:21:54Z</time>
      </trkpt>
      <trkpt lat="43.74455" lon="1.89625">
        <ele>215.95</ele>
        <time>2018-12-27T13:22:16Z</time>
      </trkpt>
      <trkpt lat="43.74455" lon="1.89612">
        <ele>216.91</ele>
        <time>2018-12-27T13:22:29Z</time>
      </trkpt>
      <trkpt lat="43.74459" lon="1.89602">
        <ele>217.4</ele>
        <time>2018-12-27T13:22:44Z</time>
      </trkpt>
      <trkpt lat="43.74459" lon="1.896">
        <ele>217.4</ele>
        <time>2018-12-27T13:22:54Z</time>
      </trkpt>
      <trkpt lat="43.74458" lon="1.89593">
        <ele>217.88</ele>
        <time>2018-12-27T13:23:07Z</time>
      </trkpt>
      <trkpt lat="43.74458" lon="1.89593">
        <ele>217.88</ele>
        <time>2018-12-27T13:23:11Z</time>
      </trkpt>
      <trkpt lat="43.74461" lon="1.89584">
        <ele>217.88</ele>
        <time>2018-12-27T13:23:17Z</time>
      </trkpt>
      <trkpt lat="43.74466" lon="1.89564">
        <ele>218.36</ele>
        <time>2018-12-27T13:23:30Z</time>
      </trkpt>
      <trkpt lat="43.74468" lon="1.89558">
        <ele>218.36</ele>
        <time>2018-12-27T13:23:34Z</time>
      </trkpt>
      <trkpt lat="43.74468" lon="1.89555">
        <ele>218.36</ele>
        <time>2018-12-27T13:23:36Z</time>
      </trkpt>
      <trkpt lat="43.74472" lon="1.8954">
        <ele>217.88</ele>
        <time>2018-12-27T13:23:45Z</time>
      </trkpt>
      <trkpt lat="43.7448" lon="1.8952">
        <ele>217.88</ele>
        <time>2018-12-27T13:24:01Z</time>
      </trkpt>
      <trkpt lat="43.74487" lon="1.89497">
        <ele>217.88</ele>
        <time>2018-12-27T13:24:17Z</time>
      </trkpt>
      <trkpt lat="43.74489" lon="1.89481">
        <ele>217.4</ele>
        <time>2018-12-27T13:24:30Z</time>
      </trkpt>
      <trkpt lat="43.74491" lon="1.89465">
        <ele>217.4</ele>
        <time>2018-12-27T13:24:43Z</time>
      </trkpt>
      <trkpt lat="43.74491" lon="1.89445">
        <ele>217.4</ele>
        <time>2018-12-27T13:24:56Z</time>
      </trkpt>
      <trkpt lat="43.7449" lon="1.89431">
        <ele>215.95</ele>
        <time>2018-12-27T13:25:04Z</time>
      </trkpt>
      <trkpt lat="43.74491" lon="1.89407">
        <ele>215.95</ele>
        <time>2018-12-27T13:25:21Z</time>
      </trkpt>
      <trkpt lat="43.74492" lon="1.89388">
        <ele>214.99</ele>
        <time>2018-12-27T13:25:34Z</time>
      </trkpt>
      <trkpt lat="43.74491" lon="1.89367">
        <ele>214.99</ele>
        <time>2018-12-27T13:25:44Z</time>
      </trkpt>
      <trkpt lat="43.74494" lon="1.89341">
        <ele>214.03</ele>
        <time>2018-12-27T13:26:00Z</time>
      </trkpt>
      <trkpt lat="43.74495" lon="1.89316">
        <ele>213.55</ele>
        <time>2018-12-27T13:26:14Z</time>
      </trkpt>
      <trkpt lat="43.74498" lon="1.89291">
        <ele>213.55</ele>
        <time>2018-12-27T13:26:28Z</time>
      </trkpt>
      <trkpt lat="43.74501" lon="1.89273">
        <ele>213.07</ele>
        <time>2018-12-27T13:26:40Z</time>
      </trkpt>
      <trkpt lat="43.74502" lon="1.89258">
        <ele>213.07</ele>
        <time>2018-12-27T13:26:51Z</time>
      </trkpt>
      <trkpt lat="43.74504" lon="1.89252">
        <ele>213.07</ele>
        <time>2018-12-27T13:26:57Z</time>
      </trkpt>
      <trkpt lat="43.74504" lon="1.89248">
        <ele>213.07</ele>
        <time>2018-12-27T13:26:59Z</time>
      </trkpt>
      <trkpt lat="43.74506" lon="1.89228">
        <ele>211.63</ele>
        <time>2018-12-27T13:27:12Z</time>
      </trkpt>
      <trkpt lat="43.74508" lon="1.89217">
        <ele>210.67</ele>
        <time>2018-12-27T13:27:25Z</time>
      </trkpt>
      <trkpt lat="43.74507" lon="1.89215">
        <ele>212.11</ele>
        <time>2018-12-27T13:27:35Z</time>
      </trkpt>
      <trkpt lat="43.74507" lon="1.89211">
        <ele>205.86</ele>
        <time>2018-12-27T13:27:52Z</time>
      </trkpt>
      <trkpt lat="43.74507" lon="1.8921">
        <ele>216.91</ele>
        <time>2018-12-27T13:27:53Z</time>
      </trkpt>
      <trkpt lat="43.74507" lon="1.89209">
        <ele>210.67</ele>
        <time>2018-12-27T13:27:54Z</time>
      </trkpt>
      <trkpt lat="43.74507" lon="1.89192">
        <ele>209.7</ele>
        <time>2018-12-27T13:28:06Z</time>
      </trkpt>
      <trkpt lat="43.7451" lon="1.89172">
        <ele>209.22</ele>
        <time>2018-12-27T13:28:19Z</time>
      </trkpt>
      <trkpt lat="43.74512" lon="1.89147">
        <ele>209.22</ele>
        <time>2018-12-27T13:28:34Z</time>
      </trkpt>
      <trkpt lat="43.74513" lon="1.89121">
        <ele>210.19</ele>
        <time>2018-12-27T13:28:49Z</time>
      </trkpt>
      <trkpt lat="43.74515" lon="1.89089">
        <ele>209.7</ele>
        <time>2018-12-27T13:29:08Z</time>
      </trkpt>
      <trkpt lat="43.74516" lon="1.89063">
        <ele>209.7</ele>
        <time>2018-12-27T13:29:24Z</time>
      </trkpt>
      <trkpt lat="43.74517" lon="1.89058">
        <ele>208.26</ele>
        <time>2018-12-27T13:29:28Z</time>
      </trkpt>
      <trkpt lat="43.7453" lon="1.89026">
        <ele>205.38</ele>
        <time>2018-12-27T13:29:48Z</time>
      </trkpt>
      <trkpt lat="43.74542" lon="1.89002">
        <ele>202.01</ele>
        <time>2018-12-27T13:30:04Z</time>
      </trkpt>
      <trkpt lat="43.74542" lon="1.89006">
        <ele>202.98</ele>
        <time>2018-12-27T13:30:16Z</time>
      </trkpt>
      <trkpt lat="43.74542" lon="1.89006">
        <ele>202.98</ele>
        <time>2018-12-27T13:30:17Z</time>
      </trkpt>
      <trkpt lat="43.74543" lon="1.89">
        <ele>201.53</ele>
        <time>2018-12-27T13:30:22Z</time>
      </trkpt>
      <trkpt lat="43.74547" lon="1.88985">
        <ele>199.13</ele>
        <time>2018-12-27T13:30:34Z</time>
      </trkpt>
      <trkpt lat="43.74551" lon="1.88973">
        <ele>198.17</ele>
        <time>2018-12-27T13:30:43Z</time>
      </trkpt>
      <trkpt lat="43.74562" lon="1.88945">
        <ele>196.25</ele>
        <time>2018-12-27T13:31:02Z</time>
      </trkpt>
      <trkpt lat="43.74574" lon="1.88917">
        <ele>193.84</ele>
        <time>2018-12-27T13:31:21Z</time>
      </trkpt>
      <trkpt lat="43.74582" lon="1.88889">
        <ele>191.44</ele>
        <time>2018-12-27T13:31:38Z</time>
      </trkpt>
      <trkpt lat="43.74593" lon="1.88868">
        <ele>188.56</ele>
        <time>2018-12-27T13:31:55Z</time>
      </trkpt>
      <trkpt lat="43.74607" lon="1.88853">
        <ele>184.71</ele>
        <time>2018-12-27T13:32:12Z</time>
      </trkpt>
      <trkpt lat="43.74621" lon="1.88831">
        <ele>181.35</ele>
        <time>2018-12-27T13:32:30Z</time>
      </trkpt>
      <trkpt lat="43.74632" lon="1.88807">
        <ele>178.46</ele>
        <time>2018-12-27T13:32:49Z</time>
      </trkpt>
      <trkpt lat="43.74638" lon="1.88792">
        <ele>176.06</ele>
        <time>2018-12-27T13:33:05Z</time>
      </trkpt>
      <trkpt lat="43.74639" lon="1.88791">
        <ele>179.42</ele>
        <time>2018-12-27T13:33:17Z</time>
      </trkpt>
      <trkpt lat="43.74642" lon="1.88789">
        <ele>176.54</ele>
        <time>2018-12-27T13:33:23Z</time>
      </trkpt>
      <trkpt lat="43.74649" lon="1.88769">
        <ele>174.14</ele>
        <time>2018-12-27T13:33:40Z</time>
      </trkpt>
      <trkpt lat="43.74657" lon="1.88746">
        <ele>171.73</ele>
        <time>2018-12-27T13:33:57Z</time>
      </trkpt>
      <trkpt lat="43.74672" lon="1.88723">
        <ele>168.37</ele>
        <time>2018-12-27T13:34:16Z</time>
      </trkpt>
      <trkpt lat="43.74679" lon="1.88724">
        <ele>167.41</ele>
        <time>2018-12-27T13:34:22Z</time>
      </trkpt>
      <trkpt lat="43.74693" lon="1.88744">
        <ele>165.48</ele>
        <time>2018-12-27T13:34:39Z</time>
      </trkpt>
      <trkpt lat="43.74703" lon="1.88769">
        <ele>163.56</ele>
        <time>2018-12-27T13:34:58Z</time>
      </trkpt>
      <trkpt lat="43.7471" lon="1.88789">
        <ele>161.64</ele>
        <time>2018-12-27T13:35:12Z</time>
      </trkpt>
      <trkpt lat="43.74716" lon="1.88794">
        <ele>160.68</ele>
        <time>2018-12-27T13:35:19Z</time>
      </trkpt>
      <trkpt lat="43.74717" lon="1.88768">
        <ele>159.72</ele>
        <time>2018-12-27T13:35:36Z</time>
      </trkpt>
      <trkpt lat="43.74714" lon="1.88742">
        <ele>159.24</ele>
        <time>2018-12-27T13:35:52Z</time>
      </trkpt>
      <trkpt lat="43.74711" lon="1.88719">
        <ele>159.24</ele>
        <time>2018-12-27T13:36:06Z</time>
      </trkpt>
      <trkpt lat="43.74703" lon="1.88685">
        <ele>158.75</ele>
        <time>2018-12-27T13:36:26Z</time>
      </trkpt>
      <trkpt lat="43.74694" lon="1.88657">
        <ele>158.27</ele>
        <time>2018-12-27T13:36:45Z</time>
      </trkpt>
      <trkpt lat="43.74686" lon="1.8864">
        <ele>158.27</ele>
        <time>2018-12-27T13:36:58Z</time>
      </trkpt>
      <trkpt lat="43.74682" lon="1.88635">
        <ele>157.79</ele>
        <time>2018-12-27T13:37:02Z</time>
      </trkpt>
      <trkpt lat="43.74675" lon="1.88626">
        <ele>157.31</ele>
        <time>2018-12-27T13:37:09Z</time>
      </trkpt>
      <trkpt lat="43.74665" lon="1.88623">
        <ele>156.83</ele>
        <time>2018-12-27T13:37:25Z</time>
      </trkpt>
      <trkpt lat="43.74656" lon="1.88626">
        <ele>154.91</ele>
        <time>2018-12-27T13:37:48Z</time>
      </trkpt>
      <trkpt lat="43.7464" lon="1.88624">
        <ele>152.99</ele>
        <time>2018-12-27T13:38:01Z</time>
      </trkpt>
      <trkpt lat="43.74625" lon="1.88628">
        <ele>150.58</ele>
        <time>2018-12-27T13:38:15Z</time>
      </trkpt>
      <trkpt lat="43.74616" lon="1.88637">
        <ele>150.1</ele>
        <time>2018-12-27T13:38:29Z</time>
      </trkpt>
      <trkpt lat="43.74602" lon="1.88646">
        <ele>149.62</ele>
        <time>2018-12-27T13:38:47Z</time>
      </trkpt>
      <trkpt lat="43.74592" lon="1.88653">
        <ele>149.62</ele>
        <time>2018-12-27T13:39:03Z</time>
      </trkpt>
      <trkpt lat="43.74575" lon="1.88644">
        <ele>147.7</ele>
        <time>2018-12-27T13:39:19Z</time>
      </trkpt>
      <trkpt lat="43.7457" lon="1.88644">
        <ele>149.14</ele>
        <time>2018-12-27T13:39:28Z</time>
      </trkpt>
      <trkpt lat="43.74558" lon="1.88656">
        <ele>150.58</ele>
        <time>2018-12-27T13:39:44Z</time>
      </trkpt>
      <trkpt lat="43.74542" lon="1.88664">
        <ele>151.54</ele>
        <time>2018-12-27T13:40:01Z</time>
      </trkpt>
      <trkpt lat="43.74531" lon="1.88679">
        <ele>152.03</ele>
        <time>2018-12-27T13:40:16Z</time>
      </trkpt>
      <trkpt lat="43.74521" lon="1.88682">
        <ele>154.91</ele>
        <time>2018-12-27T13:40:32Z</time>
      </trkpt>
      <trkpt lat="43.74505" lon="1.88676">
        <ele>157.79</ele>
        <time>2018-12-27T13:40:52Z</time>
      </trkpt>
      <trkpt lat="43.74497" lon="1.88668">
        <ele>158.75</ele>
        <time>2018-12-27T13:41:09Z</time>
      </trkpt>
      <trkpt lat="43.74482" lon="1.88665">
        <ele>160.2</ele>
        <time>2018-12-27T13:41:24Z</time>
      </trkpt>
      <trkpt lat="43.74469" lon="1.88659">
        <ele>162.12</ele>
        <time>2018-12-27T13:41:40Z</time>
      </trkpt>
      <trkpt lat="43.74454" lon="1.88655">
        <ele>164.04</ele>
        <time>2018-12-27T13:41:58Z</time>
      </trkpt>
      <trkpt lat="43.74442" lon="1.88646">
        <ele>165.48</ele>
        <time>2018-12-27T13:42:13Z</time>
      </trkpt>
      <trkpt lat="43.74432" lon="1.88636">
        <ele>168.37</ele>
        <time>2018-12-27T13:42:28Z</time>
      </trkpt>
      <trkpt lat="43.7443" lon="1.88628">
        <ele>168.85</ele>
        <time>2018-12-27T13:42:43Z</time>
      </trkpt>
      <trkpt lat="43.74437" lon="1.88632">
        <ele>168.37</ele>
        <time>2018-12-27T13:43:10Z</time>
      </trkpt>
      <trkpt lat="43.7444" lon="1.88631">
        <ele>168.37</ele>
        <time>2018-12-27T13:43:45Z</time>
      </trkpt>
      <trkpt lat="43.7443" lon="1.88623">
        <ele>169.81</ele>
        <time>2018-12-27T13:44:05Z</time>
      </trkpt>
      <trkpt lat="43.74428" lon="1.88619">
        <ele>168.85</ele>
        <time>2018-12-27T13:44:20Z</time>
      </trkpt>
      <trkpt lat="43.7442" lon="1.88619">
        <ele>169.81</ele>
        <time>2018-12-27T13:44:32Z</time>
      </trkpt>
      <trkpt lat="43.74409" lon="1.88616">
        <ele>171.25</ele>
        <time>2018-12-27T13:44:47Z</time>
      </trkpt>
      <trkpt lat="43.74396" lon="1.88603">
        <ele>173.17</ele>
        <time>2018-12-27T13:45:05Z</time>
      </trkpt>
      <trkpt lat="43.74382" lon="1.88593">
        <ele>176.06</ele>
        <time>2018-12-27T13:45:22Z</time>
      </trkpt>
      <trkpt lat="43.74373" lon="1.88578">
        <ele>177.5</ele>
        <time>2018-12-27T13:45:38Z</time>
      </trkpt>
      <trkpt lat="43.74364" lon="1.88568">
        <ele>179.9</ele>
        <time>2018-12-27T13:45:53Z</time>
      </trkpt>
      <trkpt lat="43.74355" lon="1.88561">
        <ele>181.83</ele>
        <time>2018-12-27T13:46:07Z</time>
      </trkpt>
      <trkpt lat="43.74347" lon="1.88553">
        <ele>183.27</ele>
        <time>2018-12-27T13:46:22Z</time>
      </trkpt>
      <trkpt lat="43.74342" lon="1.88542">
        <ele>183.75</ele>
        <time>2018-12-27T13:46:38Z</time>
      </trkpt>
      <trkpt lat="43.74332" lon="1.88537">
        <ele>184.71</ele>
        <time>2018-12-27T13:46:52Z</time>
      </trkpt>
      <trkpt lat="43.74322" lon="1.8853">
        <ele>187.11</ele>
        <time>2018-12-27T13:47:07Z</time>
      </trkpt>
      <trkpt lat="43.74312" lon="1.88521">
        <ele>190</ele>
        <time>2018-12-27T13:47:20Z</time>
      </trkpt>
      <trkpt lat="43.74302" lon="1.88511">
        <ele>191.92</ele>
        <time>2018-12-27T13:47:34Z</time>
      </trkpt>
      <trkpt lat="43.74292" lon="1.88502">
        <ele>194.32</ele>
        <time>2018-12-27T13:47:49Z</time>
      </trkpt>
      <trkpt lat="43.74281" lon="1.88494">
        <ele>196.25</ele>
        <time>2018-12-27T13:48:04Z</time>
      </trkpt>
      <trkpt lat="43.74283" lon="1.88493">
        <ele>196.25</ele>
        <time>2018-12-27T13:48:25Z</time>
      </trkpt>
      <trkpt lat="43.74281" lon="1.88495">
        <ele>196.25</ele>
        <time>2018-12-27T13:48:47Z</time>
      </trkpt>
      <trkpt lat="43.7428" lon="1.88493">
        <ele>196.25</ele>
        <time>2018-12-27T13:49:02Z</time>
      </trkpt>
      <trkpt lat="43.74276" lon="1.88483">
        <ele>197.69</ele>
        <time>2018-12-27T13:49:15Z</time>
      </trkpt>
      <trkpt lat="43.74275" lon="1.88481">
        <ele>197.69</ele>
        <time>2018-12-27T13:49:18Z</time>
      </trkpt>
      <trkpt lat="43.74266" lon="1.88465">
        <ele>199.13</ele>
        <time>2018-12-27T13:49:32Z</time>
      </trkpt>
      <trkpt lat="43.74258" lon="1.88453">
        <ele>200.09</ele>
        <time>2018-12-27T13:49:45Z</time>
      </trkpt>
      <trkpt lat="43.74257" lon="1.88452">
        <ele>200.09</ele>
        <time>2018-12-27T13:49:47Z</time>
      </trkpt>
      <trkpt lat="43.74254" lon="1.88451">
        <ele>200.57</ele>
        <time>2018-12-27T13:49:49Z</time>
      </trkpt>
      <trkpt lat="43.74252" lon="1.88448">
        <ele>200.57</ele>
        <time>2018-12-27T13:49:52Z</time>
      </trkpt>
      <trkpt lat="43.74246" lon="1.88444">
        <ele>201.05</ele>
        <time>2018-12-27T13:49:59Z</time>
      </trkpt>
      <trkpt lat="43.74228" lon="1.88433">
        <ele>202.01</ele>
        <time>2018-12-27T13:50:16Z</time>
      </trkpt>
      <trkpt lat="43.74217" lon="1.88424">
        <ele>203.46</ele>
        <time>2018-12-27T13:50:29Z</time>
      </trkpt>
      <trkpt lat="43.74209" lon="1.88417">
        <ele>203.94</ele>
        <time>2018-12-27T13:50:38Z</time>
      </trkpt>
      <trkpt lat="43.74199" lon="1.88407">
        <ele>204.42</ele>
        <time>2018-12-27T13:50:49Z</time>
      </trkpt>
      <trkpt lat="43.7419" lon="1.88396">
        <ele>205.38</ele>
        <time>2018-12-27T13:51:04Z</time>
      </trkpt>
      <trkpt lat="43.74191" lon="1.88397">
        <ele>205.38</ele>
        <time>2018-12-27T13:51:28Z</time>
      </trkpt>
      <trkpt lat="43.74191" lon="1.88397">
        <ele>205.38</ele>
        <time>2018-12-27T13:51:42Z</time>
      </trkpt>
      <trkpt lat="43.7419" lon="1.88396">
        <ele>205.38</ele>
        <time>2018-12-27T13:52:02Z</time>
      </trkpt>
      <trkpt lat="43.74188" lon="1.88396">
        <ele>205.38</ele>
        <time>2018-12-27T13:52:19Z</time>
      </trkpt>
      <trkpt lat="43.74183" lon="1.88388">
        <ele>205.38</ele>
        <time>2018-12-27T13:52:35Z</time>
      </trkpt>
      <trkpt lat="43.74177" lon="1.8838">
        <ele>205.38</ele>
        <time>2018-12-27T13:52:43Z</time>
      </trkpt>
      <trkpt lat="43.74165" lon="1.88369">
        <ele>205.86</ele>
        <time>2018-12-27T13:52:58Z</time>
      </trkpt>
      <trkpt lat="43.74151" lon="1.88356">
        <ele>206.82</ele>
        <time>2018-12-27T13:53:15Z</time>
      </trkpt>
      <trkpt lat="43.74134" lon="1.88348">
        <ele>208.26</ele>
        <time>2018-12-27T13:53:32Z</time>
      </trkpt>
      <trkpt lat="43.7412" lon="1.8834">
        <ele>209.22</ele>
        <time>2018-12-27T13:53:48Z</time>
      </trkpt>
      <trkpt lat="43.74102" lon="1.88335">
        <ele>210.19</ele>
        <time>2018-12-27T13:54:05Z</time>
      </trkpt>
      <trkpt lat="43.74087" lon="1.88333">
        <ele>210.19</ele>
        <time>2018-12-27T13:54:20Z</time>
      </trkpt>
      <trkpt lat="43.74077" lon="1.88329">
        <ele>211.15</ele>
        <time>2018-12-27T13:54:35Z</time>
      </trkpt>
      <trkpt lat="43.74069" lon="1.88328">
        <ele>211.63</ele>
        <time>2018-12-27T13:54:50Z</time>
      </trkpt>
      <trkpt lat="43.74068" lon="1.88329">
        <ele>211.63</ele>
        <time>2018-12-27T13:54:53Z</time>
      </trkpt>
      <trkpt lat="43.74066" lon="1.88329">
        <ele>211.63</ele>
        <time>2018-12-27T13:54:57Z</time>
      </trkpt>
      <trkpt lat="43.74048" lon="1.88329">
        <ele>211.63</ele>
        <time>2018-12-27T13:55:13Z</time>
      </trkpt>
      <trkpt lat="43.74042" lon="1.88329">
        <ele>211.63</ele>
        <time>2018-12-27T13:55:18Z</time>
      </trkpt>
      <trkpt lat="43.74025" lon="1.88332">
        <ele>212.11</ele>
        <time>2018-12-27T13:55:34Z</time>
      </trkpt>
      <trkpt lat="43.74009" lon="1.88336">
        <ele>213.07</ele>
        <time>2018-12-27T13:55:51Z</time>
      </trkpt>
      <trkpt lat="43.73995" lon="1.88338">
        <ele>214.03</ele>
        <time>2018-12-27T13:56:05Z</time>
      </trkpt>
      <trkpt lat="43.73981" lon="1.8834">
        <ele>214.99</ele>
        <time>2018-12-27T13:56:20Z</time>
      </trkpt>
      <trkpt lat="43.73967" lon="1.88343">
        <ele>215.95</ele>
        <time>2018-12-27T13:56:34Z</time>
      </trkpt>
      <trkpt lat="43.73953" lon="1.88347">
        <ele>217.4</ele>
        <time>2018-12-27T13:56:48Z</time>
      </trkpt>
      <trkpt lat="43.73941" lon="1.88348">
        <ele>217.88</ele>
        <time>2018-12-27T13:57:02Z</time>
      </trkpt>
      <trkpt lat="43.73932" lon="1.88351">
        <ele>218.84</ele>
        <time>2018-12-27T13:57:18Z</time>
      </trkpt>
      <trkpt lat="43.7393" lon="1.88351">
        <ele>219.32</ele>
        <time>2018-12-27T13:57:33Z</time>
      </trkpt>
      <trkpt lat="43.73926" lon="1.88348">
        <ele>219.32</ele>
        <time>2018-12-27T13:57:51Z</time>
      </trkpt>
      <trkpt lat="43.73924" lon="1.88348">
        <ele>219.32</ele>
        <time>2018-12-27T13:57:53Z</time>
      </trkpt>
      <trkpt lat="43.73911" lon="1.88347">
        <ele>220.28</ele>
        <time>2018-12-27T13:58:07Z</time>
      </trkpt>
      <trkpt lat="43.73899" lon="1.88346">
        <ele>221.24</ele>
        <time>2018-12-27T13:58:19Z</time>
      </trkpt>
      <trkpt lat="43.73892" lon="1.88345">
        <ele>221.24</ele>
        <time>2018-12-27T13:58:25Z</time>
      </trkpt>
      <trkpt lat="43.73871" lon="1.88344">
        <ele>222.2</ele>
        <time>2018-12-27T13:58:43Z</time>
      </trkpt>
      <trkpt lat="43.73853" lon="1.88341">
        <ele>223.16</ele>
        <time>2018-12-27T13:58:59Z</time>
      </trkpt>
      <trkpt lat="43.73838" lon="1.88337">
        <ele>223.16</ele>
        <time>2018-12-27T13:59:13Z</time>
      </trkpt>
      <trkpt lat="43.7382" lon="1.88331">
        <ele>224.12</ele>
        <time>2018-12-27T13:59:30Z</time>
      </trkpt>
      <trkpt lat="43.73819" lon="1.88331">
        <ele>224.12</ele>
        <time>2018-12-27T13:59:31Z</time>
      </trkpt>
      <trkpt lat="43.73801" lon="1.88323">
        <ele>225.57</ele>
        <time>2018-12-27T13:59:47Z</time>
      </trkpt>
      <trkpt lat="43.73784" lon="1.88316">
        <ele>226.53</ele>
        <time>2018-12-27T14:00:04Z</time>
      </trkpt>
      <trkpt lat="43.7377" lon="1.88309">
        <ele>227.49</ele>
        <time>2018-12-27T14:00:18Z</time>
      </trkpt>
      <trkpt lat="43.73768" lon="1.88308">
        <ele>227.49</ele>
        <time>2018-12-27T14:00:20Z</time>
      </trkpt>
      <trkpt lat="43.7375" lon="1.88302">
        <ele>227.97</ele>
        <time>2018-12-27T14:00:37Z</time>
      </trkpt>
      <trkpt lat="43.73733" lon="1.88292">
        <ele>229.41</ele>
        <time>2018-12-27T14:00:54Z</time>
      </trkpt>
      <trkpt lat="43.73716" lon="1.88281">
        <ele>230.85</ele>
        <time>2018-12-27T14:01:09Z</time>
      </trkpt>
      <trkpt lat="43.73703" lon="1.88269">
        <ele>231.81</ele>
        <time>2018-12-27T14:01:24Z</time>
      </trkpt>
      <trkpt lat="43.73696" lon="1.88256">
        <ele>232.78</ele>
        <time>2018-12-27T14:01:37Z</time>
      </trkpt>
      <trkpt lat="43.73693" lon="1.88254">
        <ele>232.78</ele>
        <time>2018-12-27T14:01:41Z</time>
      </trkpt>
      <trkpt lat="43.73686" lon="1.88255">
        <ele>233.74</ele>
        <time>2018-12-27T14:01:49Z</time>
      </trkpt>
      <trkpt lat="43.73678" lon="1.8826">
        <ele>235.18</ele>
        <time>2018-12-27T14:02:03Z</time>
      </trkpt>
      <trkpt lat="43.73674" lon="1.88264">
        <ele>235.66</ele>
        <time>2018-12-27T14:02:09Z</time>
      </trkpt>
      <trkpt lat="43.7366" lon="1.88274">
        <ele>238.06</ele>
        <time>2018-12-27T14:02:25Z</time>
      </trkpt>
      <trkpt lat="43.73658" lon="1.88275">
        <ele>237.58</ele>
        <time>2018-12-27T14:02:27Z</time>
      </trkpt>
      <trkpt lat="43.73643" lon="1.88278">
        <ele>239.51</ele>
        <time>2018-12-27T14:02:41Z</time>
      </trkpt>
      <trkpt lat="43.73632" lon="1.88288">
        <ele>240.95</ele>
        <time>2018-12-27T14:02:55Z</time>
      </trkpt>
      <trkpt lat="43.73617" lon="1.88299">
        <ele>242.39</ele>
        <time>2018-12-27T14:03:09Z</time>
      </trkpt>
      <trkpt lat="43.73601" lon="1.8831">
        <ele>243.35</ele>
        <time>2018-12-27T14:03:26Z</time>
      </trkpt>
      <trkpt lat="43.73587" lon="1.88322">
        <ele>244.31</ele>
        <time>2018-12-27T14:03:40Z</time>
      </trkpt>
      <trkpt lat="43.73574" lon="1.88336">
        <ele>245.27</ele>
        <time>2018-12-27T14:03:54Z</time>
      </trkpt>
      <trkpt lat="43.73572" lon="1.8834">
        <ele>245.27</ele>
        <time>2018-12-27T14:03:58Z</time>
      </trkpt>
      <trkpt lat="43.7357" lon="1.8835">
        <ele>245.75</ele>
        <time>2018-12-27T14:04:05Z</time>
      </trkpt>
      <trkpt lat="43.7357" lon="1.88373">
        <ele>246.72</ele>
        <time>2018-12-27T14:04:21Z</time>
      </trkpt>
      <trkpt lat="43.7357" lon="1.88395">
        <ele>247.68</ele>
        <time>2018-12-27T14:04:36Z</time>
      </trkpt>
      <trkpt lat="43.73563" lon="1.88416">
        <ele>248.64</ele>
        <time>2018-12-27T14:04:52Z</time>
      </trkpt>
      <trkpt lat="43.73556" lon="1.88435">
        <ele>249.12</ele>
        <time>2018-12-27T14:05:06Z</time>
      </trkpt>
      <trkpt lat="43.73552" lon="1.88454">
        <ele>251.04</ele>
        <time>2018-12-27T14:05:20Z</time>
      </trkpt>
      <trkpt lat="43.73546" lon="1.88474">
        <ele>252.48</ele>
        <time>2018-12-27T14:05:35Z</time>
      </trkpt>
      <trkpt lat="43.73542" lon="1.88495">
        <ele>252.48</ele>
        <time>2018-12-27T14:05:49Z</time>
      </trkpt>
      <trkpt lat="43.73535" lon="1.88516">
        <ele>253.44</ele>
        <time>2018-12-27T14:06:04Z</time>
      </trkpt>
      <trkpt lat="43.73529" lon="1.8853">
        <ele>253.44</ele>
        <time>2018-12-27T14:06:17Z</time>
      </trkpt>
      <trkpt lat="43.73524" lon="1.88545">
        <ele>253.93</ele>
        <time>2018-12-27T14:06:31Z</time>
      </trkpt>
      <trkpt lat="43.73523" lon="1.88546">
        <ele>253.44</ele>
        <time>2018-12-27T14:06:33Z</time>
      </trkpt>
      <trkpt lat="43.73519" lon="1.88555">
        <ele>253.44</ele>
        <time>2018-12-27T14:06:40Z</time>
      </trkpt>
      <trkpt lat="43.73511" lon="1.88571">
        <ele>254.41</ele>
        <time>2018-12-27T14:06:54Z</time>
      </trkpt>
      <trkpt lat="43.73505" lon="1.8858">
        <ele>253.93</ele>
        <time>2018-12-27T14:07:04Z</time>
      </trkpt>
      <trkpt lat="43.7349" lon="1.88602">
        <ele>254.41</ele>
        <time>2018-12-27T14:07:22Z</time>
      </trkpt>
      <trkpt lat="43.73486" lon="1.88611">
        <ele>254.41</ele>
        <time>2018-12-27T14:07:29Z</time>
      </trkpt>
      <trkpt lat="43.73475" lon="1.88626">
        <ele>254.89</ele>
        <time>2018-12-27T14:07:43Z</time>
      </trkpt>
      <trkpt lat="43.73468" lon="1.88637">
        <ele>256.33</ele>
        <time>2018-12-27T14:07:53Z</time>
      </trkpt>
      <trkpt lat="43.73455" lon="1.88653">
        <ele>257.77</ele>
        <time>2018-12-27T14:08:08Z</time>
      </trkpt>
      <trkpt lat="43.73441" lon="1.88672">
        <ele>260.65</ele>
        <time>2018-12-27T14:08:26Z</time>
      </trkpt>
      <trkpt lat="43.73433" lon="1.88693">
        <ele>262.58</ele>
        <time>2018-12-27T14:08:42Z</time>
      </trkpt>
      <trkpt lat="43.73432" lon="1.88697">
        <ele>262.58</ele>
        <time>2018-12-27T14:08:45Z</time>
      </trkpt>
      <trkpt lat="43.7343" lon="1.88722">
        <ele>263.06</ele>
        <time>2018-12-27T14:09:01Z</time>
      </trkpt>
      <trkpt lat="43.7343" lon="1.88732">
        <ele>263.06</ele>
        <time>2018-12-27T14:09:08Z</time>
      </trkpt>
      <trkpt lat="43.7343" lon="1.88764">
        <ele>262.58</ele>
        <time>2018-12-27T14:09:24Z</time>
      </trkpt>
      <trkpt lat="43.7343" lon="1.88778">
        <ele>262.58</ele>
        <time>2018-12-27T14:09:33Z</time>
      </trkpt>
      <trkpt lat="43.73436" lon="1.88803">
        <ele>261.14</ele>
        <time>2018-12-27T14:09:48Z</time>
      </trkpt>
      <trkpt lat="43.73435" lon="1.8882">
        <ele>261.14</ele>
        <time>2018-12-27T14:09:59Z</time>
      </trkpt>
      <trkpt lat="43.73436" lon="1.88836">
        <ele>260.17</ele>
        <time>2018-12-27T14:10:08Z</time>
      </trkpt>
      <trkpt lat="43.73438" lon="1.88844">
        <ele>259.69</ele>
        <time>2018-12-27T14:10:12Z</time>
      </trkpt>
      <trkpt lat="43.73442" lon="1.8887">
        <ele>257.77</ele>
        <time>2018-12-27T14:10:28Z</time>
      </trkpt>
      <trkpt lat="43.73442" lon="1.88873">
        <ele>257.29</ele>
        <time>2018-12-27T14:10:29Z</time>
      </trkpt>
      <trkpt lat="43.7344" lon="1.88879">
        <ele>256.33</ele>
        <time>2018-12-27T14:10:33Z</time>
      </trkpt>
      <trkpt lat="43.73441" lon="1.88901">
        <ele>255.37</ele>
        <time>2018-12-27T14:10:45Z</time>
      </trkpt>
      <trkpt lat="43.73439" lon="1.88919">
        <ele>253.44</ele>
        <time>2018-12-27T14:10:58Z</time>
      </trkpt>
      <trkpt lat="43.73437" lon="1.8894">
        <ele>251.52</ele>
        <time>2018-12-27T14:11:13Z</time>
      </trkpt>
      <trkpt lat="43.73432" lon="1.88953">
        <ele>251.04</ele>
        <time>2018-12-27T14:11:21Z</time>
      </trkpt>
      <trkpt lat="43.73423" lon="1.88966">
        <ele>250.56</ele>
        <time>2018-12-27T14:11:34Z</time>
      </trkpt>
      <trkpt lat="43.73424" lon="1.88975">
        <ele>250.08</ele>
        <time>2018-12-27T14:11:48Z</time>
      </trkpt>
      <trkpt lat="43.73429" lon="1.88981">
        <ele>250.08</ele>
        <time>2018-12-27T14:12:21Z</time>
      </trkpt>
      <trkpt lat="43.73433" lon="1.88974">
        <ele>250.08</ele>
        <time>2018-12-27T14:12:40Z</time>
      </trkpt>
      <trkpt lat="43.73435" lon="1.88975">
        <ele>250.08</ele>
        <time>2018-12-27T14:12:55Z</time>
      </trkpt>
      <trkpt lat="43.73434" lon="1.88978">
        <ele>250.08</ele>
        <time>2018-12-27T14:13:00Z</time>
      </trkpt>
      <trkpt lat="43.73431" lon="1.88982">
        <ele>250.08</ele>
        <time>2018-12-27T14:13:03Z</time>
      </trkpt>
      <trkpt lat="43.73422" lon="1.89002">
        <ele>249.12</ele>
        <time>2018-12-27T14:13:20Z</time>
      </trkpt>
      <trkpt lat="43.73421" lon="1.89008">
        <ele>248.64</ele>
        <time>2018-12-27T14:13:24Z</time>
      </trkpt>
      <trkpt lat="43.73415" lon="1.89028">
        <ele>246.72</ele>
        <time>2018-12-27T14:13:39Z</time>
      </trkpt>
      <trkpt lat="43.7341" lon="1.89049">
        <ele>245.27</ele>
        <time>2018-12-27T14:13:55Z</time>
      </trkpt>
      <trkpt lat="43.73407" lon="1.89056">
        <ele>243.83</ele>
        <time>2018-12-27T14:14:07Z</time>
      </trkpt>
      <trkpt lat="43.73406" lon="1.89056">
        <ele>243.83</ele>
        <time>2018-12-27T14:14:23Z</time>
      </trkpt>
      <trkpt lat="43.73405" lon="1.89065">
        <ele>243.35</ele>
        <time>2018-12-27T14:14:30Z</time>
      </trkpt>
      <trkpt lat="43.73405" lon="1.89071">
        <ele>242.39</ele>
        <time>2018-12-27T14:14:34Z</time>
      </trkpt>
      <trkpt lat="43.73404" lon="1.89084">
        <ele>240.47</ele>
        <time>2018-12-27T14:14:44Z</time>
      </trkpt>
      <trkpt lat="43.73395" lon="1.8911">
        <ele>238.06</ele>
        <time>2018-12-27T14:15:00Z</time>
      </trkpt>
      <trkpt lat="43.7339" lon="1.89125">
        <ele>237.1</ele>
        <time>2018-12-27T14:15:11Z</time>
      </trkpt>
      <trkpt lat="43.73384" lon="1.8915">
        <ele>234.7</ele>
        <time>2018-12-27T14:15:27Z</time>
      </trkpt>
      <trkpt lat="43.73375" lon="1.89164">
        <ele>233.26</ele>
        <time>2018-12-27T14:15:43Z</time>
      </trkpt>
      <trkpt lat="43.73374" lon="1.89169">
        <ele>233.26</ele>
        <time>2018-12-27T14:15:59Z</time>
      </trkpt>
      <trkpt lat="43.73372" lon="1.8918">
        <ele>232.78</ele>
        <time>2018-12-27T14:16:07Z</time>
      </trkpt>
      <trkpt lat="43.73367" lon="1.89196">
        <ele>231.33</ele>
        <time>2018-12-27T14:16:19Z</time>
      </trkpt>
      <trkpt lat="43.73364" lon="1.89217">
        <ele>230.85</ele>
        <time>2018-12-27T14:16:35Z</time>
      </trkpt>
      <trkpt lat="43.73357" lon="1.89246">
        <ele>230.85</ele>
        <time>2018-12-27T14:16:51Z</time>
      </trkpt>
      <trkpt lat="43.73359" lon="1.89271">
        <ele>230.85</ele>
        <time>2018-12-27T14:17:07Z</time>
      </trkpt>
      <trkpt lat="43.7336" lon="1.89272">
        <ele>230.85</ele>
        <time>2018-12-27T14:17:08Z</time>
      </trkpt>
      <trkpt lat="43.73363" lon="1.89304">
        <ele>230.85</ele>
        <time>2018-12-27T14:17:28Z</time>
      </trkpt>
      <trkpt lat="43.73363" lon="1.89306">
        <ele>230.85</ele>
        <time>2018-12-27T14:17:29Z</time>
      </trkpt>
      <trkpt lat="43.73367" lon="1.89332">
        <ele>230.85</ele>
        <time>2018-12-27T14:17:46Z</time>
      </trkpt>
      <trkpt lat="43.73366" lon="1.89348">
        <ele>230.85</ele>
        <time>2018-12-27T14:17:55Z</time>
      </trkpt>
      <trkpt lat="43.73363" lon="1.89374">
        <ele>232.3</ele>
        <time>2018-12-27T14:18:12Z</time>
      </trkpt>
      <trkpt lat="43.73365" lon="1.8938">
        <ele>232.78</ele>
        <time>2018-12-27T14:18:17Z</time>
      </trkpt>
      <trkpt lat="43.73365" lon="1.89384">
        <ele>233.26</ele>
        <time>2018-12-27T14:18:19Z</time>
      </trkpt>
      <trkpt lat="43.73363" lon="1.89391">
        <ele>233.74</ele>
        <time>2018-12-27T14:18:25Z</time>
      </trkpt>
      <trkpt lat="43.73358" lon="1.89414">
        <ele>235.18</ele>
        <time>2018-12-27T14:18:41Z</time>
      </trkpt>
      <trkpt lat="43.73349" lon="1.89433">
        <ele>238.54</ele>
        <time>2018-12-27T14:18:58Z</time>
      </trkpt>
      <trkpt lat="43.7334" lon="1.89441">
        <ele>239.51</ele>
        <time>2018-12-27T14:19:09Z</time>
      </trkpt>
      <trkpt lat="43.73335" lon="1.89443">
        <ele>239.99</ele>
        <time>2018-12-27T14:19:14Z</time>
      </trkpt>
      <trkpt lat="43.73318" lon="1.89456">
        <ele>242.39</ele>
        <time>2018-12-27T14:19:33Z</time>
      </trkpt>
      <trkpt lat="43.73307" lon="1.89464">
        <ele>243.35</ele>
        <time>2018-12-27T14:19:46Z</time>
      </trkpt>
      <trkpt lat="43.73298" lon="1.89475">
        <ele>245.27</ele>
        <time>2018-12-27T14:20:01Z</time>
      </trkpt>
      <trkpt lat="43.73297" lon="1.89477">
        <ele>245.27</ele>
        <time>2018-12-27T14:20:04Z</time>
      </trkpt>
      <trkpt lat="43.73292" lon="1.89496">
        <ele>246.23</ele>
        <time>2018-12-27T14:20:18Z</time>
      </trkpt>
      <trkpt lat="43.73291" lon="1.89507">
        <ele>246.72</ele>
        <time>2018-12-27T14:20:26Z</time>
      </trkpt>
      <trkpt lat="43.73289" lon="1.89532">
        <ele>247.68</ele>
        <time>2018-12-27T14:20:44Z</time>
      </trkpt>
      <trkpt lat="43.73287" lon="1.89542">
        <ele>247.68</ele>
        <time>2018-12-27T14:20:51Z</time>
      </trkpt>
      <trkpt lat="43.73282" lon="1.89567">
        <ele>247.2</ele>
        <time>2018-12-27T14:21:09Z</time>
      </trkpt>
      <trkpt lat="43.73279" lon="1.89582">
        <ele>245.75</ele>
        <time>2018-12-27T14:21:18Z</time>
      </trkpt>
      <trkpt lat="43.73269" lon="1.89608">
        <ele>244.31</ele>
        <time>2018-12-27T14:21:34Z</time>
      </trkpt>
      <trkpt lat="43.73265" lon="1.89633">
        <ele>242.87</ele>
        <time>2018-12-27T14:21:50Z</time>
      </trkpt>
      <trkpt lat="43.73257" lon="1.89657">
        <ele>241.43</ele>
        <time>2018-12-27T14:22:07Z</time>
      </trkpt>
      <trkpt lat="43.73249" lon="1.89692">
        <ele>241.43</ele>
        <time>2018-12-27T14:22:27Z</time>
      </trkpt>
      <trkpt lat="43.73239" lon="1.89723">
        <ele>240.95</ele>
        <time>2018-12-27T14:22:46Z</time>
      </trkpt>
      <trkpt lat="43.73234" lon="1.89749">
        <ele>240.47</ele>
        <time>2018-12-27T14:23:02Z</time>
      </trkpt>
      <trkpt lat="43.73229" lon="1.89763">
        <ele>240.47</ele>
        <time>2018-12-27T14:23:13Z</time>
      </trkpt>
      <trkpt lat="43.73221" lon="1.89792">
        <ele>239.99</ele>
        <time>2018-12-27T14:23:32Z</time>
      </trkpt>
      <trkpt lat="43.73212" lon="1.89822">
        <ele>242.39</ele>
        <time>2018-12-27T14:23:51Z</time>
      </trkpt>
      <trkpt lat="43.732" lon="1.89849">
        <ele>243.83</ele>
        <time>2018-12-27T14:24:11Z</time>
      </trkpt>
      <trkpt lat="43.7319" lon="1.89872">
        <ele>245.75</ele>
        <time>2018-12-27T14:24:29Z</time>
      </trkpt>
      <trkpt lat="43.73184" lon="1.89885">
        <ele>248.16</ele>
        <time>2018-12-27T14:24:43Z</time>
      </trkpt>
      <trkpt lat="43.73175" lon="1.899">
        <ele>250.08</ele>
        <time>2018-12-27T14:24:58Z</time>
      </trkpt>
      <trkpt lat="43.73164" lon="1.89912">
        <ele>252</ele>
        <time>2018-12-27T14:25:13Z</time>
      </trkpt>
      <trkpt lat="43.7315" lon="1.89924">
        <ele>253.44</ele>
        <time>2018-12-27T14:25:28Z</time>
      </trkpt>
      <trkpt lat="43.73144" lon="1.89929">
        <ele>253.93</ele>
        <time>2018-12-27T14:25:35Z</time>
      </trkpt>
      <trkpt lat="43.7313" lon="1.89945">
        <ele>254.41</ele>
        <time>2018-12-27T14:25:51Z</time>
      </trkpt>
      <trkpt lat="43.73121" lon="1.89957">
        <ele>255.37</ele>
        <time>2018-12-27T14:26:03Z</time>
      </trkpt>
      <trkpt lat="43.7311" lon="1.89977">
        <ele>255.85</ele>
        <time>2018-12-27T14:26:20Z</time>
      </trkpt>
      <trkpt lat="43.731" lon="1.89997">
        <ele>257.29</ele>
        <time>2018-12-27T14:26:37Z</time>
      </trkpt>
      <trkpt lat="43.73091" lon="1.90016">
        <ele>258.25</ele>
        <time>2018-12-27T14:26:53Z</time>
      </trkpt>
      <trkpt lat="43.73089" lon="1.90018">
        <ele>258.73</ele>
        <time>2018-12-27T14:26:56Z</time>
      </trkpt>
      <trkpt lat="43.7308" lon="1.90035">
        <ele>259.69</ele>
        <time>2018-12-27T14:27:10Z</time>
      </trkpt>
      <trkpt lat="43.7307" lon="1.90053">
        <ele>260.17</ele>
        <time>2018-12-27T14:27:26Z</time>
      </trkpt>
      <trkpt lat="43.73062" lon="1.90069">
        <ele>261.14</ele>
        <time>2018-12-27T14:27:42Z</time>
      </trkpt>
      <trkpt lat="43.73061" lon="1.9007">
        <ele>261.14</ele>
        <time>2018-12-27T14:27:47Z</time>
      </trkpt>
      <trkpt lat="43.73047" lon="1.90092">
        <ele>262.1</ele>
        <time>2018-12-27T14:28:06Z</time>
      </trkpt>
      <trkpt lat="43.73039" lon="1.90111">
        <ele>262.1</ele>
        <time>2018-12-27T14:28:22Z</time>
      </trkpt>
      <trkpt lat="43.7303" lon="1.90132">
        <ele>262.1</ele>
        <time>2018-12-27T14:28:37Z</time>
      </trkpt>
      <trkpt lat="43.73019" lon="1.90157">
        <ele>262.58</ele>
        <time>2018-12-27T14:28:54Z</time>
      </trkpt>
      <trkpt lat="43.7301" lon="1.90176">
        <ele>262.58</ele>
        <time>2018-12-27T14:29:11Z</time>
      </trkpt>
      <trkpt lat="43.73003" lon="1.90198">
        <ele>262.58</ele>
        <time>2018-12-27T14:29:28Z</time>
      </trkpt>
      <trkpt lat="43.72993" lon="1.90224">
        <ele>262.58</ele>
        <time>2018-12-27T14:29:46Z</time>
      </trkpt>
      <trkpt lat="43.72984" lon="1.9025">
        <ele>261.14</ele>
        <time>2018-12-27T14:30:03Z</time>
      </trkpt>
      <trkpt lat="43.72973" lon="1.90276">
        <ele>260.17</ele>
        <time>2018-12-27T14:30:21Z</time>
      </trkpt>
      <trkpt lat="43.72961" lon="1.90303">
        <ele>260.17</ele>
        <time>2018-12-27T14:30:40Z</time>
      </trkpt>
      <trkpt lat="43.72952" lon="1.90323">
        <ele>259.69</ele>
        <time>2018-12-27T14:30:56Z</time>
      </trkpt>
      <trkpt lat="43.72944" lon="1.90341">
        <ele>259.21</ele>
        <time>2018-12-27T14:31:10Z</time>
      </trkpt>
      <trkpt lat="43.72932" lon="1.90359">
        <ele>259.21</ele>
        <time>2018-12-27T14:31:26Z</time>
      </trkpt>
      <trkpt lat="43.72928" lon="1.90372">
        <ele>260.17</ele>
        <time>2018-12-27T14:31:36Z</time>
      </trkpt>
      <trkpt lat="43.72932" lon="1.90387">
        <ele>262.1</ele>
        <time>2018-12-27T14:31:50Z</time>
      </trkpt>
      <trkpt lat="43.72932" lon="1.90389">
        <ele>262.58</ele>
        <time>2018-12-27T14:31:51Z</time>
      </trkpt>
      <trkpt lat="43.72937" lon="1.90399">
        <ele>264.5</ele>
        <time>2018-12-27T14:32:06Z</time>
      </trkpt>
      <trkpt lat="43.72944" lon="1.90407">
        <ele>265.94</ele>
        <time>2018-12-27T14:32:19Z</time>
      </trkpt>
      <trkpt lat="43.72952" lon="1.90403">
        <ele>265.94</ele>
        <time>2018-12-27T14:32:35Z</time>
      </trkpt>
      <trkpt lat="43.72961" lon="1.90406">
        <ele>265.94</ele>
        <time>2018-12-27T14:32:53Z</time>
      </trkpt>
      <trkpt lat="43.72968" lon="1.90408">
        <ele>265.46</ele>
        <time>2018-12-27T14:33:12Z</time>
      </trkpt>
      <trkpt lat="43.72967" lon="1.90407">
        <ele>265.46</ele>
        <time>2018-12-27T14:33:34Z</time>
      </trkpt>
      <trkpt lat="43.72955" lon="1.90403">
        <ele>265.46</ele>
        <time>2018-12-27T14:33:46Z</time>
      </trkpt>
      <trkpt lat="43.72938" lon="1.90401">
        <ele>265.46</ele>
        <time>2018-12-27T14:34:03Z</time>
      </trkpt>
      <trkpt lat="43.72937" lon="1.904">
        <ele>264.02</ele>
        <time>2018-12-27T14:34:05Z</time>
      </trkpt>
      <trkpt lat="43.7293" lon="1.90381">
        <ele>261.14</ele>
        <time>2018-12-27T14:34:20Z</time>
      </trkpt>
      <trkpt lat="43.7293" lon="1.9038">
        <ele>261.14</ele>
        <time>2018-12-27T14:34:21Z</time>
      </trkpt>
      <trkpt lat="43.72925" lon="1.90372">
        <ele>259.21</ele>
        <time>2018-12-27T14:34:29Z</time>
      </trkpt>
      <trkpt lat="43.7292" lon="1.90373">
        <ele>258.73</ele>
        <time>2018-12-27T14:34:38Z</time>
      </trkpt>
      <trkpt lat="43.72908" lon="1.90386">
        <ele>258.73</ele>
        <time>2018-12-27T14:34:54Z</time>
      </trkpt>
      <trkpt lat="43.72895" lon="1.90402">
        <ele>258.73</ele>
        <time>2018-12-27T14:35:10Z</time>
      </trkpt>
      <trkpt lat="43.72889" lon="1.90413">
        <ele>260.17</ele>
        <time>2018-12-27T14:35:17Z</time>
      </trkpt>
      <trkpt lat="43.7288" lon="1.90435">
        <ele>260.65</ele>
        <time>2018-12-27T14:35:34Z</time>
      </trkpt>
      <trkpt lat="43.72874" lon="1.90457">
        <ele>261.14</ele>
        <time>2018-12-27T14:35:48Z</time>
      </trkpt>
      <trkpt lat="43.72869" lon="1.90473">
        <ele>261.62</ele>
        <time>2018-12-27T14:35:59Z</time>
      </trkpt>
      <trkpt lat="43.72864" lon="1.90494">
        <ele>261.62</ele>
        <time>2018-12-27T14:36:13Z</time>
      </trkpt>
      <trkpt lat="43.72863" lon="1.90498">
        <ele>262.1</ele>
        <time>2018-12-27T14:36:16Z</time>
      </trkpt>
      <trkpt lat="43.72852" lon="1.90524">
        <ele>262.58</ele>
        <time>2018-12-27T14:36:34Z</time>
      </trkpt>
      <trkpt lat="43.72842" lon="1.90549">
        <ele>263.06</ele>
        <time>2018-12-27T14:36:52Z</time>
      </trkpt>
      <trkpt lat="43.7283" lon="1.90572">
        <ele>263.54</ele>
        <time>2018-12-27T14:37:09Z</time>
      </trkpt>
      <trkpt lat="43.7282" lon="1.90593">
        <ele>264.5</ele>
        <time>2018-12-27T14:37:25Z</time>
      </trkpt>
      <trkpt lat="43.72811" lon="1.90611">
        <ele>265.94</ele>
        <time>2018-12-27T14:37:39Z</time>
      </trkpt>
      <trkpt lat="43.72803" lon="1.90622">
        <ele>266.9</ele>
        <time>2018-12-27T14:37:52Z</time>
      </trkpt>
      <trkpt lat="43.72799" lon="1.90626">
        <ele>267.38</ele>
        <time>2018-12-27T14:37:59Z</time>
      </trkpt>
      <trkpt lat="43.72797" lon="1.90626">
        <ele>267.38</ele>
        <time>2018-12-27T14:38:01Z</time>
      </trkpt>
      <trkpt lat="43.72786" lon="1.90631">
        <ele>268.35</ele>
        <time>2018-12-27T14:38:15Z</time>
      </trkpt>
      <trkpt lat="43.72768" lon="1.90643">
        <ele>269.31</ele>
        <time>2018-12-27T14:38:33Z</time>
      </trkpt>
      <trkpt lat="43.72745" lon="1.90655">
        <ele>269.31</ele>
        <time>2018-12-27T14:38:49Z</time>
      </trkpt>
      <trkpt lat="43.7273" lon="1.90669">
        <ele>269.31</ele>
        <time>2018-12-27T14:39:05Z</time>
      </trkpt>
      <trkpt lat="43.72728" lon="1.90669">
        <ele>269.31</ele>
        <time>2018-12-27T14:39:06Z</time>
      </trkpt>
      <trkpt lat="43.72715" lon="1.90689">
        <ele>269.31</ele>
        <time>2018-12-27T14:39:24Z</time>
      </trkpt>
      <trkpt lat="43.72702" lon="1.90715">
        <ele>268.35</ele>
        <time>2018-12-27T14:39:43Z</time>
      </trkpt>
      <trkpt lat="43.72695" lon="1.90735">
        <ele>268.35</ele>
        <time>2018-12-27T14:39:57Z</time>
      </trkpt>
      <trkpt lat="43.72694" lon="1.90755">
        <ele>268.35</ele>
        <time>2018-12-27T14:40:11Z</time>
      </trkpt>
      <trkpt lat="43.72692" lon="1.90781">
        <ele>267.86</ele>
        <time>2018-12-27T14:40:27Z</time>
      </trkpt>
      <trkpt lat="43.72687" lon="1.90799">
        <ele>267.86</ele>
        <time>2018-12-27T14:40:40Z</time>
      </trkpt>
      <trkpt lat="43.72679" lon="1.90819">
        <ele>267.86</ele>
        <time>2018-12-27T14:40:54Z</time>
      </trkpt>
      <trkpt lat="43.72674" lon="1.90825">
        <ele>267.86</ele>
        <time>2018-12-27T14:41:00Z</time>
      </trkpt>
      <trkpt lat="43.72661" lon="1.90845">
        <ele>269.31</ele>
        <time>2018-12-27T14:41:17Z</time>
      </trkpt>
      <trkpt lat="43.72652" lon="1.90869">
        <ele>269.31</ele>
        <time>2018-12-27T14:41:33Z</time>
      </trkpt>
      <trkpt lat="43.72642" lon="1.90893">
        <ele>270.75</ele>
        <time>2018-12-27T14:41:51Z</time>
      </trkpt>
      <trkpt lat="43.72632" lon="1.90911">
        <ele>271.23</ele>
        <time>2018-12-27T14:42:06Z</time>
      </trkpt>
      <trkpt lat="43.72621" lon="1.90926">
        <ele>271.23</ele>
        <time>2018-12-27T14:42:20Z</time>
      </trkpt>
      <trkpt lat="43.72607" lon="1.9094">
        <ele>271.23</ele>
        <time>2018-12-27T14:42:33Z</time>
      </trkpt>
      <trkpt lat="43.72586" lon="1.90942">
        <ele>271.71</ele>
        <time>2018-12-27T14:42:51Z</time>
      </trkpt>
      <trkpt lat="43.72568" lon="1.90939">
        <ele>271.71</ele>
        <time>2018-12-27T14:43:07Z</time>
      </trkpt>
      <trkpt lat="43.7256" lon="1.90938">
        <ele>272.19</ele>
        <time>2018-12-27T14:43:19Z</time>
      </trkpt>
      <trkpt lat="43.72543" lon="1.90933">
        <ele>272.19</ele>
        <time>2018-12-27T14:43:34Z</time>
      </trkpt>
      <trkpt lat="43.72521" lon="1.90931">
        <ele>272.19</ele>
        <time>2018-12-27T14:43:52Z</time>
      </trkpt>
      <trkpt lat="43.72516" lon="1.90931">
        <ele>270.75</ele>
        <time>2018-12-27T14:43:56Z</time>
      </trkpt>
      <trkpt lat="43.72515" lon="1.90933">
        <ele>270.75</ele>
        <time>2018-12-27T14:43:59Z</time>
      </trkpt>
      <trkpt lat="43.72509" lon="1.90937">
        <ele>270.75</ele>
        <time>2018-12-27T14:44:06Z</time>
      </trkpt>
      <trkpt lat="43.72494" lon="1.9095">
        <ele>270.27</ele>
        <time>2018-12-27T14:44:23Z</time>
      </trkpt>
      <trkpt lat="43.72492" lon="1.90953">
        <ele>270.27</ele>
        <time>2018-12-27T14:44:25Z</time>
      </trkpt>
      <trkpt lat="43.72487" lon="1.90956">
        <ele>269.79</ele>
        <time>2018-12-27T14:44:30Z</time>
      </trkpt>
      <trkpt lat="43.72481" lon="1.90967">
        <ele>269.31</ele>
        <time>2018-12-27T14:44:45Z</time>
      </trkpt>
      <trkpt lat="43.72482" lon="1.90969">
        <ele>269.31</ele>
        <time>2018-12-27T14:45:03Z</time>
      </trkpt>
      <trkpt lat="43.72481" lon="1.90977">
        <ele>269.31</ele>
        <time>2018-12-27T14:45:19Z</time>
      </trkpt>
      <trkpt lat="43.72482" lon="1.91001">
        <ele>269.31</ele>
        <time>2018-12-27T14:45:36Z</time>
      </trkpt>
      <trkpt lat="43.72487" lon="1.9101">
        <ele>269.31</ele>
        <time>2018-12-27T14:45:44Z</time>
      </trkpt>
      <trkpt lat="43.72497" lon="1.91026">
        <ele>269.31</ele>
        <time>2018-12-27T14:45:59Z</time>
      </trkpt>
      <trkpt lat="43.725" lon="1.91031">
        <ele>269.31</ele>
        <time>2018-12-27T14:46:03Z</time>
      </trkpt>
      <trkpt lat="43.72508" lon="1.91048">
        <ele>270.27</ele>
        <time>2018-12-27T14:46:17Z</time>
      </trkpt>
      <trkpt lat="43.7251" lon="1.91057">
        <ele>270.27</ele>
        <time>2018-12-27T14:46:23Z</time>
      </trkpt>
      <trkpt lat="43.7251" lon="1.91063">
        <ele>270.27</ele>
        <time>2018-12-27T14:46:27Z</time>
      </trkpt>
      <trkpt lat="43.72512" lon="1.91083">
        <ele>270.27</ele>
        <time>2018-12-27T14:46:41Z</time>
      </trkpt>
      <trkpt lat="43.7251" lon="1.91105">
        <ele>270.27</ele>
        <time>2018-12-27T14:46:56Z</time>
      </trkpt>
      <trkpt lat="43.72509" lon="1.91107">
        <ele>270.27</ele>
        <time>2018-12-27T14:46:58Z</time>
      </trkpt>
      <trkpt lat="43.72504" lon="1.91128">
        <ele>270.75</ele>
        <time>2018-12-27T14:47:13Z</time>
      </trkpt>
      <trkpt lat="43.72496" lon="1.91144">
        <ele>271.23</ele>
        <time>2018-12-27T14:47:28Z</time>
      </trkpt>
      <trkpt lat="43.72493" lon="1.91146">
        <ele>271.23</ele>
        <time>2018-12-27T14:47:50Z</time>
      </trkpt>
      <trkpt lat="43.72495" lon="1.91151">
        <ele>271.23</ele>
        <time>2018-12-27T14:48:07Z</time>
      </trkpt>
      <trkpt lat="43.72494" lon="1.91156">
        <ele>271.71</ele>
        <time>2018-12-27T14:48:23Z</time>
      </trkpt>
      <trkpt lat="43.72492" lon="1.91152">
        <ele>271.71</ele>
        <time>2018-12-27T14:48:46Z</time>
      </trkpt>
      <trkpt lat="43.72489" lon="1.91176">
        <ele>272.19</ele>
        <time>2018-12-27T14:49:02Z</time>
      </trkpt>
      <trkpt lat="43.72483" lon="1.91193">
        <ele>272.67</ele>
        <time>2018-12-27T14:49:16Z</time>
      </trkpt>
      <trkpt lat="43.72479" lon="1.91208">
        <ele>273.15</ele>
        <time>2018-12-27T14:49:28Z</time>
      </trkpt>
      <trkpt lat="43.72479" lon="1.91211">
        <ele>273.15</ele>
        <time>2018-12-27T14:49:30Z</time>
      </trkpt>
      <trkpt lat="43.72477" lon="1.91228">
        <ele>273.63</ele>
        <time>2018-12-27T14:49:43Z</time>
      </trkpt>
      <trkpt lat="43.72472" lon="1.91244">
        <ele>273.63</ele>
        <time>2018-12-27T14:49:55Z</time>
      </trkpt>
      <trkpt lat="43.7247" lon="1.91256">
        <ele>275.07</ele>
        <time>2018-12-27T14:50:08Z</time>
      </trkpt>
      <trkpt lat="43.72471" lon="1.91255">
        <ele>275.07</ele>
        <time>2018-12-27T14:50:29Z</time>
      </trkpt>
      <trkpt lat="43.72473" lon="1.91257">
        <ele>275.07</ele>
        <time>2018-12-27T14:51:07Z</time>
      </trkpt>
      <trkpt lat="43.7247" lon="1.9126">
        <ele>275.07</ele>
        <time>2018-12-27T14:51:29Z</time>
      </trkpt>
      <trkpt lat="43.72471" lon="1.91261">
        <ele>275.56</ele>
        <time>2018-12-27T14:51:43Z</time>
      </trkpt>
      <trkpt lat="43.72471" lon="1.91258">
        <ele>276.04</ele>
        <time>2018-12-27T14:51:59Z</time>
      </trkpt>
      <trkpt lat="43.72471" lon="1.91255">
        <ele>274.59</ele>
        <time>2018-12-27T14:52:10Z</time>
      </trkpt>
      <trkpt lat="43.72471" lon="1.91255">
        <ele>274.59</ele>
        <time>2018-12-27T14:52:23Z</time>
      </trkpt>
      <trkpt lat="43.72467" lon="1.91255">
        <ele>274.11</ele>
        <time>2018-12-27T14:52:37Z</time>
      </trkpt>
      <trkpt lat="43.72466" lon="1.91258">
        <ele>274.11</ele>
        <time>2018-12-27T14:52:41Z</time>
      </trkpt>
      <trkpt lat="43.72465" lon="1.91264">
        <ele>274.11</ele>
        <time>2018-12-27T14:52:46Z</time>
      </trkpt>
      <trkpt lat="43.72464" lon="1.91287">
        <ele>275.56</ele>
        <time>2018-12-27T14:53:03Z</time>
      </trkpt>
      <trkpt lat="43.72464" lon="1.91289">
        <ele>276.04</ele>
        <time>2018-12-27T14:53:05Z</time>
      </trkpt>
      <trkpt lat="43.72469" lon="1.91298">
        <ele>276.04</ele>
        <time>2018-12-27T14:53:16Z</time>
      </trkpt>
      <trkpt lat="43.72462" lon="1.91302">
        <ele>276.04</ele>
        <time>2018-12-27T14:53:26Z</time>
      </trkpt>
      <trkpt lat="43.72467" lon="1.91305">
        <ele>276.04</ele>
        <time>2018-12-27T14:53:38Z</time>
      </trkpt>
      <trkpt lat="43.72469" lon="1.91304">
        <ele>276.04</ele>
        <time>2018-12-27T14:53:40Z</time>
      </trkpt>
      <trkpt lat="43.72473" lon="1.91303">
        <ele>276.04</ele>
        <time>2018-12-27T14:53:50Z</time>
      </trkpt>
      <trkpt lat="43.72477" lon="1.91303">
        <ele>276.04</ele>
        <time>2018-12-27T14:53:54Z</time>
      </trkpt>
      <trkpt lat="43.72481" lon="1.91302">
        <ele>275.07</ele>
        <time>2018-12-27T14:53:57Z</time>
      </trkpt>
      <trkpt lat="43.72493" lon="1.91292">
        <ele>274.11</ele>
        <time>2018-12-27T14:54:10Z</time>
      </trkpt>
      <trkpt lat="43.72505" lon="1.91281">
        <ele>273.15</ele>
        <time>2018-12-27T14:54:24Z</time>
      </trkpt>
      <trkpt lat="43.72517" lon="1.91268">
        <ele>272.19</ele>
        <time>2018-12-27T14:54:39Z</time>
      </trkpt>
      <trkpt lat="43.72532" lon="1.91252">
        <ele>271.71</ele>
        <time>2018-12-27T14:54:56Z</time>
      </trkpt>
      <trkpt lat="43.72555" lon="1.91229">
        <ele>271.23</ele>
        <time>2018-12-27T14:55:16Z</time>
      </trkpt>
      <trkpt lat="43.7257" lon="1.91211">
        <ele>270.27</ele>
        <time>2018-12-27T14:55:34Z</time>
      </trkpt>
      <trkpt lat="43.72588" lon="1.91194">
        <ele>268.83</ele>
        <time>2018-12-27T14:55:51Z</time>
      </trkpt>
      <trkpt lat="43.72608" lon="1.9118">
        <ele>267.86</ele>
        <time>2018-12-27T14:56:09Z</time>
      </trkpt>
      <trkpt lat="43.72627" lon="1.91175">
        <ele>266.9</ele>
        <time>2018-12-27T14:56:26Z</time>
      </trkpt>
      <trkpt lat="43.72645" lon="1.91178">
        <ele>266.42</ele>
        <time>2018-12-27T14:56:43Z</time>
      </trkpt>
      <trkpt lat="43.72655" lon="1.91181">
        <ele>266.42</ele>
        <time>2018-12-27T14:56:53Z</time>
      </trkpt>
      <trkpt lat="43.72662" lon="1.91184">
        <ele>266.9</ele>
        <time>2018-12-27T14:57:09Z</time>
      </trkpt>
      <trkpt lat="43.72661" lon="1.91184">
        <ele>260.65</ele>
        <time>2018-12-27T14:57:11Z</time>
      </trkpt>
      <trkpt lat="43.72662" lon="1.91185">
        <ele>269.31</ele>
        <time>2018-12-27T14:57:12Z</time>
      </trkpt>
      <trkpt lat="43.72663" lon="1.91185">
        <ele>266.42</ele>
        <time>2018-12-27T14:57:13Z</time>
      </trkpt>
      <trkpt lat="43.72675" lon="1.91188">
        <ele>265.46</ele>
        <time>2018-12-27T14:57:30Z</time>
      </trkpt>
      <trkpt lat="43.72677" lon="1.9119">
        <ele>265.46</ele>
        <time>2018-12-27T14:57:34Z</time>
      </trkpt>
      <trkpt lat="43.72687" lon="1.91192">
        <ele>264.5</ele>
        <time>2018-12-27T14:57:51Z</time>
      </trkpt>
      <trkpt lat="43.72695" lon="1.91198">
        <ele>264.5</ele>
        <time>2018-12-27T14:58:01Z</time>
      </trkpt>
      <trkpt lat="43.72706" lon="1.91213">
        <ele>264.5</ele>
        <time>2018-12-27T14:58:15Z</time>
      </trkpt>
      <trkpt lat="43.72709" lon="1.91224">
        <ele>264.5</ele>
        <time>2018-12-27T14:58:22Z</time>
      </trkpt>
      <trkpt lat="43.72709" lon="1.91253">
        <ele>263.06</ele>
        <time>2018-12-27T14:58:40Z</time>
      </trkpt>
      <trkpt lat="43.72709" lon="1.91276">
        <ele>261.62</ele>
        <time>2018-12-27T14:58:55Z</time>
      </trkpt>
      <trkpt lat="43.72709" lon="1.91304">
        <ele>259.69</ele>
        <time>2018-12-27T14:59:13Z</time>
      </trkpt>
      <trkpt lat="43.72706" lon="1.91334">
        <ele>259.21</ele>
        <time>2018-12-27T14:59:32Z</time>
      </trkpt>
      <trkpt lat="43.72703" lon="1.9136">
        <ele>257.29</ele>
        <time>2018-12-27T14:59:49Z</time>
      </trkpt>
      <trkpt lat="43.72702" lon="1.91385">
        <ele>256.33</ele>
        <time>2018-12-27T15:00:05Z</time>
      </trkpt>
      <trkpt lat="43.72701" lon="1.91413">
        <ele>255.85</ele>
        <time>2018-12-27T15:00:22Z</time>
      </trkpt>
      <trkpt lat="43.72703" lon="1.91436">
        <ele>254.41</ele>
        <time>2018-12-27T15:00:38Z</time>
      </trkpt>
      <trkpt lat="43.72703" lon="1.9144">
        <ele>253.93</ele>
        <time>2018-12-27T15:00:41Z</time>
      </trkpt>
      <trkpt lat="43.72705" lon="1.91451">
        <ele>252.96</ele>
        <time>2018-12-27T15:00:49Z</time>
      </trkpt>
      <trkpt lat="43.72705" lon="1.9147">
        <ele>252</ele>
        <time>2018-12-27T15:01:04Z</time>
      </trkpt>
      <trkpt lat="43.72706" lon="1.91483">
        <ele>250.56</ele>
        <time>2018-12-27T15:01:19Z</time>
      </trkpt>
      <trkpt lat="43.72708" lon="1.91501">
        <ele>250.08</ele>
        <time>2018-12-27T15:01:36Z</time>
      </trkpt>
      <trkpt lat="43.72709" lon="1.91524">
        <ele>248.64</ele>
        <time>2018-12-27T15:01:52Z</time>
      </trkpt>
      <trkpt lat="43.72712" lon="1.91537">
        <ele>247.68</ele>
        <time>2018-12-27T15:02:02Z</time>
      </trkpt>
      <trkpt lat="43.72723" lon="1.91554">
        <ele>246.72</ele>
        <time>2018-12-27T15:02:18Z</time>
      </trkpt>
      <trkpt lat="43.72733" lon="1.91562">
        <ele>245.75</ele>
        <time>2018-12-27T15:02:33Z</time>
      </trkpt>
      <trkpt lat="43.72732" lon="1.91567">
        <ele>245.75</ele>
        <time>2018-12-27T15:02:41Z</time>
      </trkpt>
      <trkpt lat="43.7273" lon="1.91573">
        <ele>244.79</ele>
        <time>2018-12-27T15:03:00Z</time>
      </trkpt>
      <trkpt lat="43.72735" lon="1.91556">
        <ele>244.79</ele>
        <time>2018-12-27T15:03:18Z</time>
      </trkpt>
      <trkpt lat="43.72737" lon="1.91554">
        <ele>245.75</ele>
        <time>2018-12-27T15:03:21Z</time>
      </trkpt>
      <trkpt lat="43.72739" lon="1.91553">
        <ele>246.23</ele>
        <time>2018-12-27T15:03:24Z</time>
      </trkpt>
      <trkpt lat="43.72752" lon="1.91542">
        <ele>247.68</ele>
        <time>2018-12-27T15:03:41Z</time>
      </trkpt>
      <trkpt lat="43.72768" lon="1.9153">
        <ele>248.64</ele>
        <time>2018-12-27T15:03:58Z</time>
      </trkpt>
      <trkpt lat="43.72785" lon="1.91523">
        <ele>250.08</ele>
        <time>2018-12-27T15:04:15Z</time>
      </trkpt>
      <trkpt lat="43.72803" lon="1.91519">
        <ele>250.56</ele>
        <time>2018-12-27T15:04:31Z</time>
      </trkpt>
      <trkpt lat="43.72825" lon="1.91521">
        <ele>250.56</ele>
        <time>2018-12-27T15:04:49Z</time>
      </trkpt>
      <trkpt lat="43.72845" lon="1.91521">
        <ele>250.56</ele>
        <time>2018-12-27T15:05:04Z</time>
      </trkpt>
      <trkpt lat="43.72864" lon="1.91519">
        <ele>250.56</ele>
        <time>2018-12-27T15:05:21Z</time>
      </trkpt>
      <trkpt lat="43.7288" lon="1.91515">
        <ele>251.04</ele>
        <time>2018-12-27T15:05:36Z</time>
      </trkpt>
      <trkpt lat="43.72896" lon="1.91507">
        <ele>251.52</ele>
        <time>2018-12-27T15:05:53Z</time>
      </trkpt>
      <trkpt lat="43.72922" lon="1.91497">
        <ele>251.52</ele>
        <time>2018-12-27T15:06:17Z</time>
      </trkpt>
      <trkpt lat="43.72945" lon="1.91491">
        <ele>249.12</ele>
        <time>2018-12-27T15:06:36Z</time>
      </trkpt>
      <trkpt lat="43.72965" lon="1.91486">
        <ele>247.2</ele>
        <time>2018-12-27T15:06:55Z</time>
      </trkpt>
      <trkpt lat="43.72968" lon="1.91483">
        <ele>246.72</ele>
        <time>2018-12-27T15:06:58Z</time>
      </trkpt>
      <trkpt lat="43.72988" lon="1.9146">
        <ele>244.79</ele>
        <time>2018-12-27T15:07:20Z</time>
      </trkpt>
      <trkpt lat="43.73004" lon="1.91436">
        <ele>243.35</ele>
        <time>2018-12-27T15:07:39Z</time>
      </trkpt>
      <trkpt lat="43.73021" lon="1.91408">
        <ele>242.87</ele>
        <time>2018-12-27T15:08:00Z</time>
      </trkpt>
      <trkpt lat="43.73036" lon="1.9138">
        <ele>241.91</ele>
        <time>2018-12-27T15:08:21Z</time>
      </trkpt>
      <trkpt lat="43.73052" lon="1.91361">
        <ele>241.43</ele>
        <time>2018-12-27T15:08:41Z</time>
      </trkpt>
      <trkpt lat="43.73066" lon="1.91336">
        <ele>240.95</ele>
        <time>2018-12-27T15:09:00Z</time>
      </trkpt>
      <trkpt lat="43.73088" lon="1.91311">
        <ele>240.47</ele>
        <time>2018-12-27T15:09:24Z</time>
      </trkpt>
      <trkpt lat="43.73112" lon="1.91288">
        <ele>240.47</ele>
        <time>2018-12-27T15:09:47Z</time>
      </trkpt>
      <trkpt lat="43.73131" lon="1.91271">
        <ele>240.47</ele>
        <time>2018-12-27T15:10:06Z</time>
      </trkpt>
      <trkpt lat="43.73141" lon="1.91263">
        <ele>240.47</ele>
        <time>2018-12-27T15:10:21Z</time>
      </trkpt>
      <trkpt lat="43.73162" lon="1.91243">
        <ele>240.47</ele>
        <time>2018-12-27T15:10:43Z</time>
      </trkpt>
      <trkpt lat="43.73177" lon="1.91224">
        <ele>240.47</ele>
        <time>2018-12-27T15:11:01Z</time>
      </trkpt>
      <trkpt lat="43.73189" lon="1.91209">
        <ele>240.47</ele>
        <time>2018-12-27T15:11:20Z</time>
      </trkpt>
      <trkpt lat="43.7319" lon="1.91208">
        <ele>240.47</ele>
        <time>2018-12-27T15:11:40Z</time>
      </trkpt>
      <trkpt lat="43.73207" lon="1.91184">
        <ele>239.02</ele>
        <time>2018-12-27T15:12:00Z</time>
      </trkpt>
      <trkpt lat="43.73221" lon="1.91167">
        <ele>238.06</ele>
        <time>2018-12-27T15:12:17Z</time>
      </trkpt>
      <trkpt lat="43.73241" lon="1.91154">
        <ele>237.1</ele>
        <time>2018-12-27T15:12:34Z</time>
      </trkpt>
      <trkpt lat="43.73264" lon="1.91141">
        <ele>235.66</ele>
        <time>2018-12-27T15:12:57Z</time>
      </trkpt>
      <trkpt lat="43.73282" lon="1.91134">
        <ele>235.66</ele>
        <time>2018-12-27T15:13:12Z</time>
      </trkpt>
      <trkpt lat="43.73299" lon="1.91125">
        <ele>234.7</ele>
        <time>2018-12-27T15:13:27Z</time>
      </trkpt>
      <trkpt lat="43.73322" lon="1.91116">
        <ele>234.7</ele>
        <time>2018-12-27T15:13:46Z</time>
      </trkpt>
      <trkpt lat="43.73344" lon="1.91102">
        <ele>234.7</ele>
        <time>2018-12-27T15:14:05Z</time>
      </trkpt>
      <trkpt lat="43.73363" lon="1.91091">
        <ele>234.7</ele>
        <time>2018-12-27T15:14:23Z</time>
      </trkpt>
      <trkpt lat="43.73375" lon="1.9108">
        <ele>236.14</ele>
        <time>2018-12-27T15:14:36Z</time>
      </trkpt>
      <trkpt lat="43.73392" lon="1.91064">
        <ele>236.62</ele>
        <time>2018-12-27T15:14:53Z</time>
      </trkpt>
      <trkpt lat="43.73408" lon="1.91049">
        <ele>237.58</ele>
        <time>2018-12-27T15:15:11Z</time>
      </trkpt>
      <trkpt lat="43.73423" lon="1.91041">
        <ele>236.14</ele>
        <time>2018-12-27T15:15:24Z</time>
      </trkpt>
      <trkpt lat="43.7344" lon="1.91037">
        <ele>234.7</ele>
        <time>2018-12-27T15:15:41Z</time>
      </trkpt>
      <trkpt lat="43.73461" lon="1.91031">
        <ele>233.26</ele>
        <time>2018-12-27T15:15:57Z</time>
      </trkpt>
      <trkpt lat="43.73484" lon="1.91024">
        <ele>230.85</ele>
        <time>2018-12-27T15:16:15Z</time>
      </trkpt>
      <trkpt lat="43.73504" lon="1.91017">
        <ele>229.89</ele>
        <time>2018-12-27T15:16:33Z</time>
      </trkpt>
      <trkpt lat="43.73519" lon="1.91006">
        <ele>228.93</ele>
        <time>2018-12-27T15:16:49Z</time>
      </trkpt>
      <trkpt lat="43.73543" lon="1.91001">
        <ele>227.97</ele>
        <time>2018-12-27T15:17:07Z</time>
      </trkpt>
      <trkpt lat="43.7356" lon="1.91">
        <ele>227.49</ele>
        <time>2018-12-27T15:17:21Z</time>
      </trkpt>
      <trkpt lat="43.7358" lon="1.90998">
        <ele>227.01</ele>
        <time>2018-12-27T15:17:36Z</time>
      </trkpt>
      <trkpt lat="43.73594" lon="1.90997">
        <ele>227.01</ele>
        <time>2018-12-27T15:17:51Z</time>
      </trkpt>
      <trkpt lat="43.73608" lon="1.90989">
        <ele>225.57</ele>
        <time>2018-12-27T15:18:07Z</time>
      </trkpt>
      <trkpt lat="43.73624" lon="1.90984">
        <ele>223.64</ele>
        <time>2018-12-27T15:18:21Z</time>
      </trkpt>
      <trkpt lat="43.73647" lon="1.9098">
        <ele>222.2</ele>
        <time>2018-12-27T15:18:40Z</time>
      </trkpt>
      <trkpt lat="43.73663" lon="1.90974">
        <ele>220.28</ele>
        <time>2018-12-27T15:18:53Z</time>
      </trkpt>
      <trkpt lat="43.73682" lon="1.90966">
        <ele>217.88</ele>
        <time>2018-12-27T15:19:08Z</time>
      </trkpt>
      <trkpt lat="43.73687" lon="1.90964">
        <ele>218.36</ele>
        <time>2018-12-27T15:19:18Z</time>
      </trkpt>
      <trkpt lat="43.73687" lon="1.90963">
        <ele>217.4</ele>
        <time>2018-12-27T15:19:33Z</time>
      </trkpt>
      <trkpt lat="43.73687" lon="1.90963">
        <ele>217.4</ele>
        <time>2018-12-27T15:19:35Z</time>
      </trkpt>
      <trkpt lat="43.73707" lon="1.90956">
        <ele>214.51</ele>
        <time>2018-12-27T15:19:52Z</time>
      </trkpt>
      <trkpt lat="43.7373" lon="1.90947">
        <ele>211.63</ele>
        <time>2018-12-27T15:20:12Z</time>
      </trkpt>
      <trkpt lat="43.73755" lon="1.90938">
        <ele>208.74</ele>
        <time>2018-12-27T15:20:32Z</time>
      </trkpt>
      <trkpt lat="43.73774" lon="1.9093">
        <ele>206.82</ele>
        <time>2018-12-27T15:20:49Z</time>
      </trkpt>
      <trkpt lat="43.73794" lon="1.90921">
        <ele>204.9</ele>
        <time>2018-12-27T15:21:04Z</time>
      </trkpt>
      <trkpt lat="43.73813" lon="1.90914">
        <ele>203.94</ele>
        <time>2018-12-27T15:21:19Z</time>
      </trkpt>
      <trkpt lat="43.73828" lon="1.90906">
        <ele>202.49</ele>
        <time>2018-12-27T15:21:36Z</time>
      </trkpt>
      <trkpt lat="43.7383" lon="1.90906">
        <ele>202.49</ele>
        <time>2018-12-27T15:21:38Z</time>
      </trkpt>
      <trkpt lat="43.73832" lon="1.90905">
        <ele>202.49</ele>
        <time>2018-12-27T15:21:40Z</time>
      </trkpt>
      <trkpt lat="43.73838" lon="1.90902">
        <ele>201.53</ele>
        <time>2018-12-27T15:21:45Z</time>
      </trkpt>
      <trkpt lat="43.73864" lon="1.90892">
        <ele>201.05</ele>
        <time>2018-12-27T15:22:03Z</time>
      </trkpt>
      <trkpt lat="43.73881" lon="1.90885">
        <ele>200.57</ele>
        <time>2018-12-27T15:22:19Z</time>
      </trkpt>
      <trkpt lat="43.739" lon="1.90878">
        <ele>199.61</ele>
        <time>2018-12-27T15:22:35Z</time>
      </trkpt>
      <trkpt lat="43.73923" lon="1.90869">
        <ele>198.65</ele>
        <time>2018-12-27T15:22:56Z</time>
      </trkpt>
      <trkpt lat="43.73944" lon="1.90861">
        <ele>197.21</ele>
        <time>2018-12-27T15:23:12Z</time>
      </trkpt>
      <trkpt lat="43.73963" lon="1.90852">
        <ele>195.28</ele>
        <time>2018-12-27T15:23:31Z</time>
      </trkpt>
      <trkpt lat="43.73982" lon="1.90842">
        <ele>194.8</ele>
        <time>2018-12-27T15:23:46Z</time>
      </trkpt>
      <trkpt lat="43.74004" lon="1.90829">
        <ele>192.88</ele>
        <time>2018-12-27T15:24:05Z</time>
      </trkpt>
      <trkpt lat="43.7402" lon="1.90818">
        <ele>191.44</ele>
        <time>2018-12-27T15:24:22Z</time>
      </trkpt>
      <trkpt lat="43.7404" lon="1.90804">
        <ele>190</ele>
        <time>2018-12-27T15:24:38Z</time>
      </trkpt>
      <trkpt lat="43.74059" lon="1.90793">
        <ele>189.04</ele>
        <time>2018-12-27T15:24:56Z</time>
      </trkpt>
      <trkpt lat="43.74062" lon="1.9079">
        <ele>188.08</ele>
        <time>2018-12-27T15:25:01Z</time>
      </trkpt>
      <trkpt lat="43.74077" lon="1.90775">
        <ele>186.63</ele>
        <time>2018-12-27T15:25:16Z</time>
      </trkpt>
      <trkpt lat="43.74099" lon="1.9076">
        <ele>185.19</ele>
        <time>2018-12-27T15:25:34Z</time>
      </trkpt>
      <trkpt lat="43.74122" lon="1.90749">
        <ele>184.23</ele>
        <time>2018-12-27T15:25:54Z</time>
      </trkpt>
      <trkpt lat="43.74141" lon="1.90739">
        <ele>183.75</ele>
        <time>2018-12-27T15:26:11Z</time>
      </trkpt>
      <trkpt lat="43.74158" lon="1.90729">
        <ele>183.27</ele>
        <time>2018-12-27T15:26:26Z</time>
      </trkpt>
      <trkpt lat="43.74176" lon="1.90716">
        <ele>182.79</ele>
        <time>2018-12-27T15:26:42Z</time>
      </trkpt>
      <trkpt lat="43.74196" lon="1.90704">
        <ele>181.83</ele>
        <time>2018-12-27T15:27:00Z</time>
      </trkpt>
      <trkpt lat="43.74212" lon="1.90691">
        <ele>181.35</ele>
        <time>2018-12-27T15:27:17Z</time>
      </trkpt>
      <trkpt lat="43.74228" lon="1.90675">
        <ele>180.87</ele>
        <time>2018-12-27T15:27:33Z</time>
      </trkpt>
      <trkpt lat="43.74243" lon="1.90664">
        <ele>180.87</ele>
        <time>2018-12-27T15:27:49Z</time>
      </trkpt>
      <trkpt lat="43.74261" lon="1.90652">
        <ele>180.38</ele>
        <time>2018-12-27T15:28:04Z</time>
      </trkpt>
      <trkpt lat="43.74278" lon="1.90638">
        <ele>180.38</ele>
        <time>2018-12-27T15:28:20Z</time>
      </trkpt>
      <trkpt lat="43.74294" lon="1.90621">
        <ele>179.42</ele>
        <time>2018-12-27T15:28:37Z</time>
      </trkpt>
      <trkpt lat="43.74309" lon="1.90604">
        <ele>178.46</ele>
        <time>2018-12-27T15:28:54Z</time>
      </trkpt>
      <trkpt lat="43.74316" lon="1.90596">
        <ele>177.5</ele>
        <time>2018-12-27T15:29:01Z</time>
      </trkpt>
      <trkpt lat="43.74327" lon="1.90585">
        <ele>177.02</ele>
        <time>2018-12-27T15:29:12Z</time>
      </trkpt>
      <trkpt lat="43.74346" lon="1.90565">
        <ele>174.62</ele>
        <time>2018-12-27T15:29:31Z</time>
      </trkpt>
      <trkpt lat="43.74364" lon="1.90546">
        <ele>171.73</ele>
        <time>2018-12-27T15:29:51Z</time>
      </trkpt>
      <trkpt lat="43.74377" lon="1.90532">
        <ele>169.81</ele>
        <time>2018-12-27T15:30:06Z</time>
      </trkpt>
      <trkpt lat="43.74397" lon="1.90518">
        <ele>167.89</ele>
        <time>2018-12-27T15:30:25Z</time>
      </trkpt>
      <trkpt lat="43.74413" lon="1.90504">
        <ele>165.96</ele>
        <time>2018-12-27T15:30:40Z</time>
      </trkpt>
      <trkpt lat="43.74426" lon="1.90496">
        <ele>165</ele>
        <time>2018-12-27T15:30:53Z</time>
      </trkpt>
      <trkpt lat="43.74433" lon="1.90488">
        <ele>163.56</ele>
        <time>2018-12-27T15:31:00Z</time>
      </trkpt>
      <trkpt lat="43.74448" lon="1.90467">
        <ele>162.12</ele>
        <time>2018-12-27T15:31:17Z</time>
      </trkpt>
      <trkpt lat="43.74459" lon="1.90447">
        <ele>160.68</ele>
        <time>2018-12-27T15:31:33Z</time>
      </trkpt>
      <trkpt lat="43.74473" lon="1.90423">
        <ele>159.24</ele>
        <time>2018-12-27T15:31:52Z</time>
      </trkpt>
      <trkpt lat="43.74478" lon="1.90415">
        <ele>159.24</ele>
        <time>2018-12-27T15:31:58Z</time>
      </trkpt>
      <trkpt lat="43.74486" lon="1.9039">
        <ele>158.75</ele>
        <time>2018-12-27T15:32:14Z</time>
      </trkpt>
      <trkpt lat="43.74486" lon="1.90387">
        <ele>158.75</ele>
        <time>2018-12-27T15:32:16Z</time>
      </trkpt>
      <trkpt lat="43.7448" lon="1.90376">
        <ele>158.75</ele>
        <time>2018-12-27T15:32:33Z</time>
      </trkpt>
      <trkpt lat="43.74477" lon="1.90374">
        <ele>159.24</ele>
        <time>2018-12-27T15:32:43Z</time>
      </trkpt>
      <trkpt lat="43.74468" lon="1.90364">
        <ele>159.24</ele>
        <time>2018-12-27T15:32:55Z</time>
      </trkpt>
      <trkpt lat="43.74457" lon="1.90356">
        <ele>159.72</ele>
        <time>2018-12-27T15:33:05Z</time>
      </trkpt>
      <trkpt lat="43.74457" lon="1.90348">
        <ele>159.72</ele>
        <time>2018-12-27T15:33:11Z</time>
      </trkpt>
      <trkpt lat="43.74459" lon="1.90341">
        <ele>159.72</ele>
        <time>2018-12-27T15:33:16Z</time>
      </trkpt>
      <trkpt lat="43.7447" lon="1.90321">
        <ele>159.72</ele>
        <time>2018-12-27T15:33:31Z</time>
      </trkpt>
      <trkpt lat="43.74489" lon="1.90298">
        <ele>158.27</ele>
        <time>2018-12-27T15:33:52Z</time>
      </trkpt>
      <trkpt lat="43.74507" lon="1.90275">
        <ele>157.79</ele>
        <time>2018-12-27T15:34:11Z</time>
      </trkpt>
      <trkpt lat="43.74519" lon="1.90256">
        <ele>157.31</ele>
        <time>2018-12-27T15:34:27Z</time>
      </trkpt>
      <trkpt lat="43.74531" lon="1.90236">
        <ele>156.83</ele>
        <time>2018-12-27T15:34:44Z</time>
      </trkpt>
      <trkpt lat="43.7455" lon="1.90218">
        <ele>155.39</ele>
        <time>2018-12-27T15:35:04Z</time>
      </trkpt>
      <trkpt lat="43.74569" lon="1.90195">
        <ele>152.99</ele>
        <time>2018-12-27T15:35:24Z</time>
      </trkpt>
      <trkpt lat="43.74586" lon="1.90176">
        <ele>152.51</ele>
        <time>2018-12-27T15:35:41Z</time>
      </trkpt>
      <trkpt lat="43.74604" lon="1.90153">
        <ele>151.06</ele>
        <time>2018-12-27T15:36:01Z</time>
      </trkpt>
      <trkpt lat="43.7462" lon="1.90134">
        <ele>150.58</ele>
        <time>2018-12-27T15:36:18Z</time>
      </trkpt>
      <trkpt lat="43.7464" lon="1.90112">
        <ele>149.62</ele>
        <time>2018-12-27T15:36:40Z</time>
      </trkpt>
      <trkpt lat="43.74663" lon="1.90084">
        <ele>149.14</ele>
        <time>2018-12-27T15:37:04Z</time>
      </trkpt>
      <trkpt lat="43.74681" lon="1.90064">
        <ele>148.66</ele>
        <time>2018-12-27T15:37:23Z</time>
      </trkpt>
      <trkpt lat="43.74698" lon="1.90044">
        <ele>148.18</ele>
        <time>2018-12-27T15:37:43Z</time>
      </trkpt>
      <trkpt lat="43.74712" lon="1.90027">
        <ele>148.18</ele>
        <time>2018-12-27T15:37:58Z</time>
      </trkpt>
      <trkpt lat="43.7473" lon="1.90007">
        <ele>147.22</ele>
        <time>2018-12-27T15:38:17Z</time>
      </trkpt>
      <trkpt lat="43.74745" lon="1.8999">
        <ele>147.22</ele>
        <time>2018-12-27T15:38:35Z</time>
      </trkpt>
      <trkpt lat="43.74752" lon="1.89987">
        <ele>146.74</ele>
        <time>2018-12-27T15:38:42Z</time>
      </trkpt>
      <trkpt lat="43.7477" lon="1.89985">
        <ele>145.78</ele>
        <time>2018-12-27T15:39:01Z</time>
      </trkpt>
      <trkpt lat="43.74771" lon="1.89987">
        <ele>145.78</ele>
        <time>2018-12-27T15:39:27Z</time>
      </trkpt>
      <trkpt lat="43.7477" lon="1.89984">
        <ele>145.78</ele>
        <time>2018-12-27T15:39:39Z</time>
      </trkpt>
      <trkpt lat="43.7477" lon="1.89983">
        <ele>145.78</ele>
        <time>2018-12-27T15:40:10Z</time>
      </trkpt>
      <trkpt lat="43.74771" lon="1.89985">
        <ele>145.78</ele>
        <time>2018-12-27T15:40:38Z</time>
      </trkpt>
      <trkpt lat="43.7477" lon="1.89985">
        <ele>145.78</ele>
        <time>2018-12-27T15:41:10Z</time>
      </trkpt>
    </trkseg>
  </trk>
</gpx>